<?xml version="1.0" encoding="UTF-8" standalone="no" ?>
<gpx xmlns="http://www.topografix.com/GPX/1/1" xmlns:xsi="http://www.w3.org/2001/XMLSchema-instance" xsi:schemaLocation="http://www.topografix.com/GPX/1/1 http://www.topografix.com/GPX/1/1/gpx.xsd" version="1.1" creator="VisuGPX - https://www.visugpx.com">
  <metadata>
    <name>Les Grès d'Annot 2025</name>
    <desc><![CDATA[Sortie très agréable des Grés d'Annot et ses rochers qui défient l'équilibre.
-les jardins du roi - -la chambre du roi - les portettes - -panorama au dessus des gorges du COLOMP
- col de Pelloussis -Baou de Parrou]]></desc>
  </metadata>
  <trk>
    <name><![CDATA[Les Grès d'Annot 2025_1]]></name>
    <desc><![CDATA[{DC1}Heure de fin	: 17:06:35
Durée totale	: 4h26:01
Moyenne globale	: 2.9 km/h
Pente moyenne	: 14.71 %
Aire incluse	: 270.7826 ha
Bornes emprise	: 43.9856 6.6625 ; 43.9596 6.6868
Détails par segments
distance  | durée    | vit.moy. | vit.max. | déniv. + | déniv -
   km     | hh:mn:ss |   km/h   |   km/h   |    m     |    m
    12.85 | 04:26:01 |      2.9 |      3.3 |      945 |     -945{DC2}



{DC1}Heure de fin	: 17:06:35
Durée totale	: 4h26:01
Moyenne globale	: 2.9 km/h
Pente moyenne	: 14.71 %
Aire incluse	: 270.7826 ha
Bornes emprise	: 43.9856 6.6625 ; 43.9596 6.6868
Détails par segments
distance  | durée    | vit.moy. | vit.max. | déniv. + | déniv -
   km     | hh:mn:ss |   km/h   |   km/h   |    m     |    m
    12.85 | 04:26:01 |      2.9 |      3.3 |      945 |     -945{DC2}]]></desc>
    <extensions>
      <line xmlns="http://www.topografix.com/GPX/gpx_style/0/2">
        <color>ff0000</color>
        <opacity>1</opacity>
        <width>4</width>
      </line>
    </extensions>
    <trkseg>
      <trkpt lat="43.96332" lon="6.6725">
        <ele>706</ele>
        <time>2025-09-26T10:40:34Z</time>
      </trkpt>
      <trkpt lat="43.96343" lon="6.67247">
        <ele>706</ele>
        <time>2025-09-26T10:40:49Z</time>
      </trkpt>
      <trkpt lat="43.96363" lon="6.6722">
        <ele>704</ele>
        <time>2025-09-26T10:41:26Z</time>
      </trkpt>
      <trkpt lat="43.96403" lon="6.672">
        <ele>705</ele>
        <time>2025-09-26T10:42:23Z</time>
      </trkpt>
      <trkpt lat="43.96464" lon="6.67176">
        <ele>704</ele>
        <time>2025-09-26T10:43:48Z</time>
      </trkpt>
      <trkpt lat="43.96481" lon="6.67173">
        <ele>705</ele>
        <time>2025-09-26T10:44:10Z</time>
      </trkpt>
      <trkpt lat="43.9648" lon="6.67172">
        <ele>704</ele>
        <time>2025-09-26T10:44:54Z</time>
      </trkpt>
      <trkpt lat="43.96488" lon="6.67207">
        <ele>712</ele>
        <time>2025-09-26T10:45:29Z</time>
      </trkpt>
      <trkpt lat="43.96501" lon="6.67198">
        <ele>711</ele>
        <time>2025-09-26T10:45:49Z</time>
      </trkpt>
      <trkpt lat="43.96441" lon="6.67236">
        <ele>713</ele>
        <time>2025-09-26T10:47:17Z</time>
      </trkpt>
      <trkpt lat="43.96362" lon="6.67297">
        <ele>717</ele>
        <time>2025-09-26T10:49:17Z</time>
      </trkpt>
      <trkpt lat="43.96307" lon="6.67335">
        <ele>713</ele>
        <time>2025-09-26T10:50:39Z</time>
      </trkpt>
      <trkpt lat="43.96277" lon="6.67354">
        <ele>714</ele>
        <time>2025-09-26T10:51:23Z</time>
      </trkpt>
      <trkpt lat="43.96266" lon="6.67358">
        <ele>713</ele>
        <time>2025-09-26T10:51:38Z</time>
      </trkpt>
      <trkpt lat="43.96237" lon="6.67395">
        <ele>718</ele>
        <time>2025-09-26T10:52:31Z</time>
      </trkpt>
      <trkpt lat="43.96223" lon="6.67397">
        <ele>716</ele>
        <time>2025-09-26T10:52:50Z</time>
      </trkpt>
      <trkpt lat="43.962" lon="6.67409">
        <ele>716</ele>
        <time>2025-09-26T10:53:23Z</time>
      </trkpt>
      <trkpt lat="43.96212" lon="6.67418">
        <ele>720</ele>
        <time>2025-09-26T10:53:41Z</time>
      </trkpt>
      <trkpt lat="43.96218" lon="6.67426">
        <ele>723</ele>
        <time>2025-09-26T10:53:54Z</time>
      </trkpt>
      <trkpt lat="43.9621" lon="6.67436">
        <ele>725</ele>
        <time>2025-09-26T10:54:10Z</time>
      </trkpt>
      <trkpt lat="43.96219" lon="6.67439">
        <ele>728</ele>
        <time>2025-09-26T10:54:28Z</time>
      </trkpt>
      <trkpt lat="43.96223" lon="6.67452">
        <ele>733</ele>
        <time>2025-09-26T10:54:45Z</time>
      </trkpt>
      <trkpt lat="43.96218" lon="6.6746">
        <ele>735</ele>
        <time>2025-09-26T10:54:55Z</time>
      </trkpt>
      <trkpt lat="43.96224" lon="6.67468">
        <ele>739</ele>
        <time>2025-09-26T10:55:07Z</time>
      </trkpt>
      <trkpt lat="43.96233" lon="6.67471">
        <ele>742</ele>
        <time>2025-09-26T10:55:20Z</time>
      </trkpt>
      <trkpt lat="43.96228" lon="6.6748">
        <ele>744</ele>
        <time>2025-09-26T10:55:32Z</time>
      </trkpt>
      <trkpt lat="43.96226" lon="6.67493">
        <ele>748</ele>
        <time>2025-09-26T10:55:45Z</time>
      </trkpt>
      <trkpt lat="43.96246" lon="6.67502">
        <ele>756</ele>
        <time>2025-09-26T10:56:14Z</time>
      </trkpt>
      <trkpt lat="43.9625" lon="6.67514">
        <ele>760</ele>
        <time>2025-09-26T10:56:27Z</time>
      </trkpt>
      <trkpt lat="43.96257" lon="6.67517">
        <ele>762</ele>
        <time>2025-09-26T10:56:37Z</time>
      </trkpt>
      <trkpt lat="43.96252" lon="6.67537">
        <ele>767</ele>
        <time>2025-09-26T10:56:57Z</time>
      </trkpt>
      <trkpt lat="43.96235" lon="6.67554">
        <ele>768</ele>
        <time>2025-09-26T10:57:26Z</time>
      </trkpt>
      <trkpt lat="43.96223" lon="6.67555">
        <ele>766</ele>
        <time>2025-09-26T10:57:43Z</time>
      </trkpt>
      <trkpt lat="43.96219" lon="6.67566">
        <ele>768</ele>
        <time>2025-09-26T10:57:55Z</time>
      </trkpt>
      <trkpt lat="43.96198" lon="6.67592">
        <ele>771</ele>
        <time>2025-09-26T10:58:40Z</time>
      </trkpt>
      <trkpt lat="43.96202" lon="6.67608">
        <ele>777</ele>
        <time>2025-09-26T10:58:59Z</time>
      </trkpt>
      <trkpt lat="43.96198" lon="6.67623">
        <ele>780</ele>
        <time>2025-09-26T10:59:14Z</time>
      </trkpt>
      <trkpt lat="43.96201" lon="6.67633">
        <ele>784</ele>
        <time>2025-09-26T10:59:25Z</time>
      </trkpt>
      <trkpt lat="43.96214" lon="6.67624">
        <ele>784</ele>
        <time>2025-09-26T10:59:44Z</time>
      </trkpt>
      <trkpt lat="43.96226" lon="6.67635">
        <ele>790</ele>
        <time>2025-09-26T11:00:05Z</time>
      </trkpt>
      <trkpt lat="43.96219" lon="6.67646">
        <ele>792</ele>
        <time>2025-09-26T11:00:19Z</time>
      </trkpt>
      <trkpt lat="43.96217" lon="6.67659">
        <ele>796</ele>
        <time>2025-09-26T11:00:39Z</time>
      </trkpt>
      <trkpt lat="43.96228" lon="6.67668">
        <ele>801</ele>
        <time>2025-09-26T11:00:58Z</time>
      </trkpt>
      <trkpt lat="43.9622" lon="6.67679">
        <ele>803</ele>
        <time>2025-09-26T11:01:13Z</time>
      </trkpt>
      <trkpt lat="43.96218" lon="6.67695">
        <ele>808</ele>
        <time>2025-09-26T11:01:29Z</time>
      </trkpt>
      <trkpt lat="43.96209" lon="6.6771">
        <ele>811</ele>
        <time>2025-09-26T11:01:48Z</time>
      </trkpt>
      <trkpt lat="43.96204" lon="6.67724">
        <ele>814</ele>
        <time>2025-09-26T11:02:03Z</time>
      </trkpt>
      <trkpt lat="43.96195" lon="6.67725">
        <ele>812</ele>
        <time>2025-09-26T11:02:15Z</time>
      </trkpt>
      <trkpt lat="43.96203" lon="6.6774">
        <ele>820</ele>
        <time>2025-09-26T11:02:35Z</time>
      </trkpt>
      <trkpt lat="43.96191" lon="6.67746">
        <ele>818</ele>
        <time>2025-09-26T11:02:52Z</time>
      </trkpt>
      <trkpt lat="43.96191" lon="6.6776">
        <ele>822</ele>
        <time>2025-09-26T11:03:06Z</time>
      </trkpt>
      <trkpt lat="43.9618" lon="6.67792">
        <ele>827</ele>
        <time>2025-09-26T11:03:43Z</time>
      </trkpt>
      <trkpt lat="43.9617" lon="6.67804">
        <ele>827</ele>
        <time>2025-09-26T11:04:01Z</time>
      </trkpt>
      <trkpt lat="43.96164" lon="6.67838">
        <ele>835</ele>
        <time>2025-09-26T11:04:35Z</time>
      </trkpt>
      <trkpt lat="43.9615" lon="6.67851">
        <ele>835</ele>
        <time>2025-09-26T11:04:58Z</time>
      </trkpt>
      <trkpt lat="43.96144" lon="6.6786">
        <ele>837</ele>
        <time>2025-09-26T11:05:09Z</time>
      </trkpt>
      <trkpt lat="43.96152" lon="6.67862">
        <ele>841</ele>
        <time>2025-09-26T11:05:21Z</time>
      </trkpt>
      <trkpt lat="43.96145" lon="6.67876">
        <ele>844</ele>
        <time>2025-09-26T11:05:37Z</time>
      </trkpt>
      <trkpt lat="43.96139" lon="6.67882">
        <ele>844</ele>
        <time>2025-09-26T11:05:47Z</time>
      </trkpt>
      <trkpt lat="43.96134" lon="6.67895">
        <ele>847</ele>
        <time>2025-09-26T11:06:01Z</time>
      </trkpt>
      <trkpt lat="43.96126" lon="6.67898">
        <ele>844</ele>
        <time>2025-09-26T11:06:13Z</time>
      </trkpt>
      <trkpt lat="43.9612" lon="6.67904">
        <ele>844</ele>
        <time>2025-09-26T11:06:23Z</time>
      </trkpt>
      <trkpt lat="43.96109" lon="6.67921">
        <ele>846</ele>
        <time>2025-09-26T11:06:45Z</time>
      </trkpt>
      <trkpt lat="43.96101" lon="6.67928">
        <ele>845</ele>
        <time>2025-09-26T11:06:57Z</time>
      </trkpt>
      <trkpt lat="43.96088" lon="6.67932">
        <ele>841</ele>
        <time>2025-09-26T11:07:15Z</time>
      </trkpt>
      <trkpt lat="43.96083" lon="6.67943">
        <ele>844</ele>
        <time>2025-09-26T11:07:28Z</time>
      </trkpt>
      <trkpt lat="43.96072" lon="6.67954">
        <ele>844</ele>
        <time>2025-09-26T11:07:46Z</time>
      </trkpt>
      <trkpt lat="43.96068" lon="6.67976">
        <ele>852</ele>
        <time>2025-09-26T11:08:08Z</time>
      </trkpt>
      <trkpt lat="43.96059" lon="6.67994">
        <ele>855</ele>
        <time>2025-09-26T11:08:29Z</time>
      </trkpt>
      <trkpt lat="43.96052" lon="6.68">
        <ele>854</ele>
        <time>2025-09-26T11:08:40Z</time>
      </trkpt>
      <trkpt lat="43.96063" lon="6.68005">
        <ele>863</ele>
        <time>2025-09-26T11:09:03Z</time>
      </trkpt>
      <trkpt lat="43.96071" lon="6.68001">
        <ele>864</ele>
        <time>2025-09-26T11:09:15Z</time>
      </trkpt>
      <trkpt lat="43.96079" lon="6.67993">
        <ele>864</ele>
        <time>2025-09-26T11:09:28Z</time>
      </trkpt>
      <trkpt lat="43.96083" lon="6.68002">
        <ele>870</ele>
        <time>2025-09-26T11:09:52Z</time>
      </trkpt>
      <trkpt lat="43.96078" lon="6.68026">
        <ele>885</ele>
        <time>2025-09-26T11:10:28Z</time>
      </trkpt>
      <trkpt lat="43.96103" lon="6.68013">
        <ele>889</ele>
        <time>2025-09-26T11:11:04Z</time>
      </trkpt>
      <trkpt lat="43.96114" lon="6.68003">
        <ele>888</ele>
        <time>2025-09-26T11:11:22Z</time>
      </trkpt>
      <trkpt lat="43.9613" lon="6.68009">
        <ele>900</ele>
        <time>2025-09-26T11:11:51Z</time>
      </trkpt>
      <trkpt lat="43.96136" lon="6.6799">
        <ele>892</ele>
        <time>2025-09-26T11:12:11Z</time>
      </trkpt>
      <trkpt lat="43.96144" lon="6.67987">
        <ele>895</ele>
        <time>2025-09-26T11:12:22Z</time>
      </trkpt>
      <trkpt lat="43.96145" lon="6.67976">
        <ele>890</ele>
        <time>2025-09-26T11:12:32Z</time>
      </trkpt>
      <trkpt lat="43.96155" lon="6.67972">
        <ele>893</ele>
        <time>2025-09-26T11:12:47Z</time>
      </trkpt>
      <trkpt lat="43.96168" lon="6.67971">
        <ele>899</ele>
        <time>2025-09-26T11:13:06Z</time>
      </trkpt>
      <trkpt lat="43.96181" lon="6.67974">
        <ele>906</ele>
        <time>2025-09-26T11:13:23Z</time>
      </trkpt>
      <trkpt lat="43.96189" lon="6.67972">
        <ele>908</ele>
        <time>2025-09-26T11:13:34Z</time>
      </trkpt>
      <trkpt lat="43.96199" lon="6.67977">
        <ele>915</ele>
        <time>2025-09-26T11:13:48Z</time>
      </trkpt>
      <trkpt lat="43.96213" lon="6.67972">
        <ele>918</ele>
        <time>2025-09-26T11:14:08Z</time>
      </trkpt>
      <trkpt lat="43.96208" lon="6.67994">
        <ele>928</ele>
        <time>2025-09-26T11:14:30Z</time>
      </trkpt>
      <trkpt lat="43.96208" lon="6.68004">
        <ele>933</ele>
        <time>2025-09-26T11:14:39Z</time>
      </trkpt>
      <trkpt lat="43.96186" lon="6.68023">
        <ele>936</ele>
        <time>2025-09-26T11:15:14Z</time>
      </trkpt>
      <trkpt lat="43.96163" lon="6.68024">
        <ele>928</ele>
        <time>2025-09-26T11:15:45Z</time>
      </trkpt>
      <trkpt lat="43.96141" lon="6.68034">
        <ele>923</ele>
        <time>2025-09-26T11:16:16Z</time>
      </trkpt>
      <trkpt lat="43.96121" lon="6.68048">
        <ele>923</ele>
        <time>2025-09-26T11:16:46Z</time>
      </trkpt>
      <trkpt lat="43.96109" lon="6.68046">
        <ele>916</ele>
        <time>2025-09-26T11:17:02Z</time>
      </trkpt>
      <trkpt lat="43.9609" lon="6.68058">
        <ele>915</ele>
        <time>2025-09-26T11:17:32Z</time>
      </trkpt>
      <trkpt lat="43.96085" lon="6.68072">
        <ele>923</ele>
        <time>2025-09-26T11:17:47Z</time>
      </trkpt>
      <trkpt lat="43.96077" lon="6.6808">
        <ele>923</ele>
        <time>2025-09-26T11:18:00Z</time>
      </trkpt>
      <trkpt lat="43.9607" lon="6.68085">
        <ele>921</ele>
        <time>2025-09-26T11:18:11Z</time>
      </trkpt>
      <trkpt lat="43.96061" lon="6.68081">
        <ele>911</ele>
        <time>2025-09-26T11:18:24Z</time>
      </trkpt>
      <trkpt lat="43.96048" lon="6.68099">
        <ele>910</ele>
        <time>2025-09-26T11:18:48Z</time>
      </trkpt>
      <trkpt lat="43.96037" lon="6.68114">
        <ele>908</ele>
        <time>2025-09-26T11:19:11Z</time>
      </trkpt>
      <trkpt lat="43.96033" lon="6.6814">
        <ele>918</ele>
        <time>2025-09-26T11:19:36Z</time>
      </trkpt>
      <trkpt lat="43.96005" lon="6.68176">
        <ele>909</ele>
        <time>2025-09-26T11:20:28Z</time>
      </trkpt>
      <trkpt lat="43.95995" lon="6.6818">
        <ele>900</ele>
        <time>2025-09-26T11:20:42Z</time>
      </trkpt>
      <trkpt lat="43.95989" lon="6.682">
        <ele>900</ele>
        <time>2025-09-26T11:21:03Z</time>
      </trkpt>
      <trkpt lat="43.95975" lon="6.6821">
        <ele>889</ele>
        <time>2025-09-26T11:21:24Z</time>
      </trkpt>
      <trkpt lat="43.95965" lon="6.68233">
        <ele>885</ele>
        <time>2025-09-26T11:21:50Z</time>
      </trkpt>
      <trkpt lat="43.95962" lon="6.68266">
        <ele>889</ele>
        <time>2025-09-26T11:22:22Z</time>
      </trkpt>
      <trkpt lat="43.95963" lon="6.68281">
        <ele>892</ele>
        <time>2025-09-26T11:22:36Z</time>
      </trkpt>
      <trkpt lat="43.95971" lon="6.68315">
        <ele>904</ele>
        <time>2025-09-26T11:23:11Z</time>
      </trkpt>
      <trkpt lat="43.95971" lon="6.68328">
        <ele>906</ele>
        <time>2025-09-26T11:23:23Z</time>
      </trkpt>
      <trkpt lat="43.95976" lon="6.68336">
        <ele>911</ele>
        <time>2025-09-26T11:23:33Z</time>
      </trkpt>
      <trkpt lat="43.95979" lon="6.6835">
        <ele>910</ele>
        <time>2025-09-26T11:23:47Z</time>
      </trkpt>
      <trkpt lat="43.95977" lon="6.68368">
        <ele>902</ele>
        <time>2025-09-26T11:24:05Z</time>
      </trkpt>
      <trkpt lat="43.96" lon="6.68405">
        <ele>911</ele>
        <time>2025-09-26T11:24:53Z</time>
      </trkpt>
      <trkpt lat="43.96009" lon="6.68417">
        <ele>920</ele>
        <time>2025-09-26T11:25:11Z</time>
      </trkpt>
      <trkpt lat="43.96024" lon="6.68415">
        <ele>942</ele>
        <time>2025-09-26T11:25:31Z</time>
      </trkpt>
      <trkpt lat="43.96045" lon="6.68442">
        <ele>953</ele>
        <time>2025-09-26T11:26:09Z</time>
      </trkpt>
      <trkpt lat="43.9607" lon="6.68463">
        <ele>968</ele>
        <time>2025-09-26T11:26:49Z</time>
      </trkpt>
      <trkpt lat="43.96089" lon="6.6847">
        <ele>980</ele>
        <time>2025-09-26T11:27:15Z</time>
      </trkpt>
      <trkpt lat="43.96107" lon="6.68493">
        <ele>969</ele>
        <time>2025-09-26T11:27:48Z</time>
      </trkpt>
      <trkpt lat="43.96116" lon="6.68499">
        <ele>969</ele>
        <time>2025-09-26T11:28:01Z</time>
      </trkpt>
      <trkpt lat="43.96126" lon="6.68503">
        <ele>972</ele>
        <time>2025-09-26T11:28:15Z</time>
      </trkpt>
      <trkpt lat="43.96138" lon="6.68503">
        <ele>978</ele>
        <time>2025-09-26T11:28:31Z</time>
      </trkpt>
      <trkpt lat="43.96144" lon="6.68497">
        <ele>984</ele>
        <time>2025-09-26T11:28:41Z</time>
      </trkpt>
      <trkpt lat="43.96157" lon="6.68498">
        <ele>991</ele>
        <time>2025-09-26T11:28:59Z</time>
      </trkpt>
      <trkpt lat="43.96164" lon="6.6849">
        <ele>997</ele>
        <time>2025-09-26T11:29:11Z</time>
      </trkpt>
      <trkpt lat="43.96171" lon="6.68478">
        <ele>1001</ele>
        <time>2025-09-26T11:29:27Z</time>
      </trkpt>
      <trkpt lat="43.96189" lon="6.68472">
        <ele>1003</ele>
        <time>2025-09-26T11:29:51Z</time>
      </trkpt>
      <trkpt lat="43.96194" lon="6.68457">
        <ele>1006</ele>
        <time>2025-09-26T11:30:08Z</time>
      </trkpt>
      <trkpt lat="43.96203" lon="6.68455">
        <ele>1007</ele>
        <time>2025-09-26T11:30:20Z</time>
      </trkpt>
      <trkpt lat="43.96214" lon="6.68447">
        <ele>1008</ele>
        <time>2025-09-26T11:30:37Z</time>
      </trkpt>
      <trkpt lat="43.96218" lon="6.68435">
        <ele>1009</ele>
        <time>2025-09-26T11:30:50Z</time>
      </trkpt>
      <trkpt lat="43.96226" lon="6.68428">
        <ele>1010</ele>
        <time>2025-09-26T11:31:03Z</time>
      </trkpt>
      <trkpt lat="43.96234" lon="6.6842">
        <ele>1010</ele>
        <time>2025-09-26T11:31:16Z</time>
      </trkpt>
      <trkpt lat="43.9625" lon="6.68421">
        <ele>1009</ele>
        <time>2025-09-26T11:31:38Z</time>
      </trkpt>
      <trkpt lat="43.96279" lon="6.68393">
        <ele>1013</ele>
        <time>2025-09-26T11:32:29Z</time>
      </trkpt>
      <trkpt lat="43.96299" lon="6.68367">
        <ele>1016</ele>
        <time>2025-09-26T11:33:07Z</time>
      </trkpt>
      <trkpt lat="43.96309" lon="6.68371">
        <ele>1016</ele>
        <time>2025-09-26T11:33:21Z</time>
      </trkpt>
      <trkpt lat="43.96327" lon="6.68409">
        <ele>1014</ele>
        <time>2025-09-26T11:34:05Z</time>
      </trkpt>
      <trkpt lat="43.96337" lon="6.68421">
        <ele>1015</ele>
        <time>2025-09-26T11:34:23Z</time>
      </trkpt>
      <trkpt lat="43.96341" lon="6.68438">
        <ele>1016</ele>
        <time>2025-09-26T11:34:40Z</time>
      </trkpt>
      <trkpt lat="43.9635" lon="6.68451">
        <ele>1018</ele>
        <time>2025-09-26T11:34:57Z</time>
      </trkpt>
      <trkpt lat="43.96401" lon="6.68497">
        <ele>1031</ele>
        <time>2025-09-26T11:36:18Z</time>
      </trkpt>
      <trkpt lat="43.96412" lon="6.68502">
        <ele>1034</ele>
        <time>2025-09-26T11:36:34Z</time>
      </trkpt>
      <trkpt lat="43.96423" lon="6.68499">
        <ele>1036</ele>
        <time>2025-09-26T11:36:49Z</time>
      </trkpt>
      <trkpt lat="43.96429" lon="6.6851">
        <ele>1037</ele>
        <time>2025-09-26T11:37:03Z</time>
      </trkpt>
      <trkpt lat="43.96419" lon="6.68526">
        <ele>1035</ele>
        <time>2025-09-26T11:37:24Z</time>
      </trkpt>
      <trkpt lat="43.96418" lon="6.68547">
        <ele>1035</ele>
        <time>2025-09-26T11:37:44Z</time>
      </trkpt>
      <trkpt lat="43.96413" lon="6.68557">
        <ele>1035</ele>
        <time>2025-09-26T11:37:56Z</time>
      </trkpt>
      <trkpt lat="43.96418" lon="6.68581">
        <ele>1036</ele>
        <time>2025-09-26T11:38:20Z</time>
      </trkpt>
      <trkpt lat="43.96416" lon="6.68607">
        <ele>1027</ele>
        <time>2025-09-26T11:38:45Z</time>
      </trkpt>
      <trkpt lat="43.96333" lon="6.68682">
        <ele>1012</ele>
        <time>2025-09-26T11:40:57Z</time>
      </trkpt>
      <trkpt lat="43.96443" lon="6.68576">
        <ele>1031</ele>
        <time>2025-09-26T11:43:56Z</time>
      </trkpt>
      <trkpt lat="43.96434" lon="6.68498">
        <ele>1038</ele>
        <time>2025-09-26T11:45:12Z</time>
      </trkpt>
      <trkpt lat="43.96344" lon="6.68308">
        <ele>1021</ele>
        <time>2025-09-26T11:48:50Z</time>
      </trkpt>
      <trkpt lat="43.96349" lon="6.68296">
        <ele>1022</ele>
        <time>2025-09-26T11:49:03Z</time>
      </trkpt>
      <trkpt lat="43.96353" lon="6.68256">
        <ele>1024</ele>
        <time>2025-09-26T11:49:42Z</time>
      </trkpt>
      <trkpt lat="43.9636" lon="6.6825">
        <ele>1025</ele>
        <time>2025-09-26T11:49:57Z</time>
      </trkpt>
      <trkpt lat="43.96366" lon="6.68239">
        <ele>1026</ele>
        <time>2025-09-26T11:50:10Z</time>
      </trkpt>
      <trkpt lat="43.96376" lon="6.68189">
        <ele>1028</ele>
        <time>2025-09-26T11:51:02Z</time>
      </trkpt>
      <trkpt lat="43.96382" lon="6.68162">
        <ele>1029</ele>
        <time>2025-09-26T11:51:29Z</time>
      </trkpt>
      <trkpt lat="43.96374" lon="6.68153">
        <ele>1027</ele>
        <time>2025-09-26T11:51:43Z</time>
      </trkpt>
      <trkpt lat="43.96382" lon="6.68141">
        <ele>1026</ele>
        <time>2025-09-26T11:52:05Z</time>
      </trkpt>
      <trkpt lat="43.96393" lon="6.68145">
        <ele>1029</ele>
        <time>2025-09-26T11:52:20Z</time>
      </trkpt>
      <trkpt lat="43.96398" lon="6.68132">
        <ele>1028</ele>
        <time>2025-09-26T11:52:34Z</time>
      </trkpt>
      <trkpt lat="43.96405" lon="6.68124">
        <ele>1028</ele>
        <time>2025-09-26T11:52:46Z</time>
      </trkpt>
      <trkpt lat="43.96415" lon="6.68123">
        <ele>1030</ele>
        <time>2025-09-26T11:52:59Z</time>
      </trkpt>
      <trkpt lat="43.96423" lon="6.68117">
        <ele>1031</ele>
        <time>2025-09-26T11:53:12Z</time>
      </trkpt>
      <trkpt lat="43.96437" lon="6.68131">
        <ele>1035</ele>
        <time>2025-09-26T11:53:35Z</time>
      </trkpt>
      <trkpt lat="43.96457" lon="6.68127">
        <ele>1038</ele>
        <time>2025-09-26T11:54:03Z</time>
      </trkpt>
      <trkpt lat="43.96478" lon="6.68132">
        <ele>1043</ele>
        <time>2025-09-26T11:54:33Z</time>
      </trkpt>
      <trkpt lat="43.96488" lon="6.68138">
        <ele>1045</ele>
        <time>2025-09-26T11:54:48Z</time>
      </trkpt>
      <trkpt lat="43.9651" lon="6.68134">
        <ele>1049</ele>
        <time>2025-09-26T11:55:18Z</time>
      </trkpt>
      <trkpt lat="43.96553" lon="6.68157">
        <ele>1062</ele>
        <time>2025-09-26T11:56:19Z</time>
      </trkpt>
      <trkpt lat="43.96563" lon="6.68168">
        <ele>1066</ele>
        <time>2025-09-26T11:56:36Z</time>
      </trkpt>
      <trkpt lat="43.96576" lon="6.68177">
        <ele>1067</ele>
        <time>2025-09-26T11:56:56Z</time>
      </trkpt>
      <trkpt lat="43.96615" lon="6.68197">
        <ele>1074</ele>
        <time>2025-09-26T11:57:52Z</time>
      </trkpt>
      <trkpt lat="43.9664" lon="6.68201">
        <ele>1080</ele>
        <time>2025-09-26T11:58:26Z</time>
      </trkpt>
      <trkpt lat="43.96649" lon="6.68215">
        <ele>1080</ele>
        <time>2025-09-26T11:58:44Z</time>
      </trkpt>
      <trkpt lat="43.96656" lon="6.68221">
        <ele>1082</ele>
        <time>2025-09-26T11:58:55Z</time>
      </trkpt>
      <trkpt lat="43.96667" lon="6.68243">
        <ele>1082</ele>
        <time>2025-09-26T11:59:21Z</time>
      </trkpt>
      <trkpt lat="43.96697" lon="6.68275">
        <ele>1085</ele>
        <time>2025-09-26T12:00:11Z</time>
      </trkpt>
      <trkpt lat="43.96711" lon="6.68268">
        <ele>1090</ele>
        <time>2025-09-26T12:00:31Z</time>
      </trkpt>
      <trkpt lat="43.96725" lon="6.68273">
        <ele>1092</ele>
        <time>2025-09-26T12:00:51Z</time>
      </trkpt>
      <trkpt lat="43.96743" lon="6.68287">
        <ele>1092</ele>
        <time>2025-09-26T12:01:18Z</time>
      </trkpt>
      <trkpt lat="43.96766" lon="6.68291">
        <ele>1094</ele>
        <time>2025-09-26T12:01:49Z</time>
      </trkpt>
      <trkpt lat="43.96775" lon="6.6829">
        <ele>1096</ele>
        <time>2025-09-26T12:02:01Z</time>
      </trkpt>
      <trkpt lat="43.96788" lon="6.68294">
        <ele>1096</ele>
        <time>2025-09-26T12:02:21Z</time>
      </trkpt>
      <trkpt lat="43.96801" lon="6.68288">
        <ele>1099</ele>
        <time>2025-09-26T12:02:39Z</time>
      </trkpt>
      <trkpt lat="43.96822" lon="6.68287">
        <ele>1102</ele>
        <time>2025-09-26T12:03:07Z</time>
      </trkpt>
      <trkpt lat="43.96845" lon="6.68272">
        <ele>1109</ele>
        <time>2025-09-26T12:03:41Z</time>
      </trkpt>
      <trkpt lat="43.96876" lon="6.68262">
        <ele>1113</ele>
        <time>2025-09-26T12:04:23Z</time>
      </trkpt>
      <trkpt lat="43.9689" lon="6.68258">
        <ele>1115</ele>
        <time>2025-09-26T12:04:43Z</time>
      </trkpt>
      <trkpt lat="43.96905" lon="6.68264">
        <ele>1113</ele>
        <time>2025-09-26T12:05:04Z</time>
      </trkpt>
      <trkpt lat="43.96915" lon="6.6826">
        <ele>1114</ele>
        <time>2025-09-26T12:05:18Z</time>
      </trkpt>
      <trkpt lat="43.96926" lon="6.68266">
        <ele>1113</ele>
        <time>2025-09-26T12:05:34Z</time>
      </trkpt>
      <trkpt lat="43.96954" lon="6.68264">
        <ele>1115</ele>
        <time>2025-09-26T12:06:11Z</time>
      </trkpt>
      <trkpt lat="43.96965" lon="6.68266">
        <ele>1115</ele>
        <time>2025-09-26T12:06:26Z</time>
      </trkpt>
      <trkpt lat="43.96991" lon="6.68251">
        <ele>1120</ele>
        <time>2025-09-26T12:07:04Z</time>
      </trkpt>
      <trkpt lat="43.97004" lon="6.6825">
        <ele>1121</ele>
        <time>2025-09-26T12:07:21Z</time>
      </trkpt>
      <trkpt lat="43.97014" lon="6.68254">
        <ele>1119</ele>
        <time>2025-09-26T12:07:35Z</time>
      </trkpt>
      <trkpt lat="43.9703" lon="6.68254">
        <ele>1117</ele>
        <time>2025-09-26T12:07:56Z</time>
      </trkpt>
      <trkpt lat="43.97051" lon="6.68241">
        <ele>1119</ele>
        <time>2025-09-26T12:08:28Z</time>
      </trkpt>
      <trkpt lat="43.9706" lon="6.68237">
        <ele>1119</ele>
        <time>2025-09-26T12:08:40Z</time>
      </trkpt>
      <trkpt lat="43.97067" lon="6.6824">
        <ele>1118</ele>
        <time>2025-09-26T12:08:50Z</time>
      </trkpt>
      <trkpt lat="43.97097" lon="6.68235">
        <ele>1118</ele>
        <time>2025-09-26T12:09:30Z</time>
      </trkpt>
      <trkpt lat="43.97129" lon="6.68239">
        <ele>1118</ele>
        <time>2025-09-26T12:10:13Z</time>
      </trkpt>
      <trkpt lat="43.97156" lon="6.68247">
        <ele>1117</ele>
        <time>2025-09-26T12:10:50Z</time>
      </trkpt>
      <trkpt lat="43.97168" lon="6.68244">
        <ele>1118</ele>
        <time>2025-09-26T12:11:06Z</time>
      </trkpt>
      <trkpt lat="43.97177" lon="6.68247">
        <ele>1118</ele>
        <time>2025-09-26T12:11:19Z</time>
      </trkpt>
      <trkpt lat="43.97193" lon="6.68258">
        <ele>1115</ele>
        <time>2025-09-26T12:11:43Z</time>
      </trkpt>
      <trkpt lat="43.97214" lon="6.68257">
        <ele>1116</ele>
        <time>2025-09-26T12:12:11Z</time>
      </trkpt>
      <trkpt lat="43.97223" lon="6.68267">
        <ele>1115</ele>
        <time>2025-09-26T12:12:26Z</time>
      </trkpt>
      <trkpt lat="43.97243" lon="6.6827">
        <ele>1116</ele>
        <time>2025-09-26T12:12:53Z</time>
      </trkpt>
      <trkpt lat="43.97259" lon="6.68285">
        <ele>1115</ele>
        <time>2025-09-26T12:13:19Z</time>
      </trkpt>
      <trkpt lat="43.97309" lon="6.68285">
        <ele>1118</ele>
        <time>2025-09-26T12:14:26Z</time>
      </trkpt>
      <trkpt lat="43.97359" lon="6.68313">
        <ele>1119</ele>
        <time>2025-09-26T12:15:39Z</time>
      </trkpt>
      <trkpt lat="43.97375" lon="6.6831">
        <ele>1119</ele>
        <time>2025-09-26T12:16:01Z</time>
      </trkpt>
      <trkpt lat="43.97394" lon="6.68315">
        <ele>1120</ele>
        <time>2025-09-26T12:16:27Z</time>
      </trkpt>
      <trkpt lat="43.97417" lon="6.68311">
        <ele>1120</ele>
        <time>2025-09-26T12:16:58Z</time>
      </trkpt>
      <trkpt lat="43.97426" lon="6.68312">
        <ele>1120</ele>
        <time>2025-09-26T12:17:10Z</time>
      </trkpt>
      <trkpt lat="43.9744" lon="6.68318">
        <ele>1119</ele>
        <time>2025-09-26T12:17:30Z</time>
      </trkpt>
      <trkpt lat="43.97459" lon="6.68333">
        <ele>1118</ele>
        <time>2025-09-26T12:17:59Z</time>
      </trkpt>
      <trkpt lat="43.9747" lon="6.68333">
        <ele>1118</ele>
        <time>2025-09-26T12:18:13Z</time>
      </trkpt>
      <trkpt lat="43.97483" lon="6.68327">
        <ele>1118</ele>
        <time>2025-09-26T12:18:32Z</time>
      </trkpt>
      <trkpt lat="43.97493" lon="6.68326">
        <ele>1118</ele>
        <time>2025-09-26T12:18:45Z</time>
      </trkpt>
      <trkpt lat="43.97505" lon="6.68332">
        <ele>1118</ele>
        <time>2025-09-26T12:19:02Z</time>
      </trkpt>
      <trkpt lat="43.97535" lon="6.68358">
        <ele>1115</ele>
        <time>2025-09-26T12:19:49Z</time>
      </trkpt>
      <trkpt lat="43.97549" lon="6.6836">
        <ele>1117</ele>
        <time>2025-09-26T12:20:08Z</time>
      </trkpt>
      <trkpt lat="43.97565" lon="6.68369">
        <ele>1118</ele>
        <time>2025-09-26T12:20:31Z</time>
      </trkpt>
      <trkpt lat="43.97591" lon="6.68374">
        <ele>1123</ele>
        <time>2025-09-26T12:21:06Z</time>
      </trkpt>
      <trkpt lat="43.97598" lon="6.68384">
        <ele>1124</ele>
        <time>2025-09-26T12:21:21Z</time>
      </trkpt>
      <trkpt lat="43.97614" lon="6.68379">
        <ele>1128</ele>
        <time>2025-09-26T12:21:42Z</time>
      </trkpt>
      <trkpt lat="43.97633" lon="6.68381">
        <ele>1132</ele>
        <time>2025-09-26T12:22:08Z</time>
      </trkpt>
      <trkpt lat="43.97651" lon="6.68373">
        <ele>1136</ele>
        <time>2025-09-26T12:22:33Z</time>
      </trkpt>
      <trkpt lat="43.97675" lon="6.6837">
        <ele>1140</ele>
        <time>2025-09-26T12:23:05Z</time>
      </trkpt>
      <trkpt lat="43.97713" lon="6.68348">
        <ele>1144</ele>
        <time>2025-09-26T12:24:00Z</time>
      </trkpt>
      <trkpt lat="43.97725" lon="6.68344">
        <ele>1145</ele>
        <time>2025-09-26T12:24:17Z</time>
      </trkpt>
      <trkpt lat="43.97734" lon="6.68345">
        <ele>1146</ele>
        <time>2025-09-26T12:24:29Z</time>
      </trkpt>
      <trkpt lat="43.97753" lon="6.68337">
        <ele>1149</ele>
        <time>2025-09-26T12:24:57Z</time>
      </trkpt>
      <trkpt lat="43.97768" lon="6.68337">
        <ele>1150</ele>
        <time>2025-09-26T12:25:17Z</time>
      </trkpt>
      <trkpt lat="43.97782" lon="6.68354">
        <ele>1150</ele>
        <time>2025-09-26T12:25:42Z</time>
      </trkpt>
      <trkpt lat="43.97794" lon="6.68361">
        <ele>1150</ele>
        <time>2025-09-26T12:26:00Z</time>
      </trkpt>
      <trkpt lat="43.97811" lon="6.68357">
        <ele>1152</ele>
        <time>2025-09-26T12:26:23Z</time>
      </trkpt>
      <trkpt lat="43.97821" lon="6.68358">
        <ele>1153</ele>
        <time>2025-09-26T12:26:36Z</time>
      </trkpt>
      <trkpt lat="43.97854" lon="6.68376">
        <ele>1154</ele>
        <time>2025-09-26T12:27:24Z</time>
      </trkpt>
      <trkpt lat="43.97893" lon="6.68391">
        <ele>1158</ele>
        <time>2025-09-26T12:28:18Z</time>
      </trkpt>
      <trkpt lat="43.97894" lon="6.68381">
        <ele>1158</ele>
        <time>2025-09-26T12:28:33Z</time>
      </trkpt>
      <trkpt lat="43.97916" lon="6.68393">
        <ele>1161</ele>
        <time>2025-09-26T12:29:05Z</time>
      </trkpt>
      <trkpt lat="43.97926" lon="6.6842">
        <ele>1162</ele>
        <time>2025-09-26T12:29:34Z</time>
      </trkpt>
      <trkpt lat="43.97947" lon="6.68454">
        <ele>1156</ele>
        <time>2025-09-26T12:30:17Z</time>
      </trkpt>
      <trkpt lat="43.97975" lon="6.68482">
        <ele>1159</ele>
        <time>2025-09-26T12:31:03Z</time>
      </trkpt>
      <trkpt lat="43.97989" lon="6.68501">
        <ele>1164</ele>
        <time>2025-09-26T12:31:31Z</time>
      </trkpt>
      <trkpt lat="43.98001" lon="6.68507">
        <ele>1167</ele>
        <time>2025-09-26T12:31:48Z</time>
      </trkpt>
      <trkpt lat="43.98017" lon="6.68504">
        <ele>1168</ele>
        <time>2025-09-26T12:32:10Z</time>
      </trkpt>
      <trkpt lat="43.98038" lon="6.6851">
        <ele>1166</ele>
        <time>2025-09-26T12:32:39Z</time>
      </trkpt>
      <trkpt lat="43.98048" lon="6.6851">
        <ele>1166</ele>
        <time>2025-09-26T12:32:52Z</time>
      </trkpt>
      <trkpt lat="43.98063" lon="6.68504">
        <ele>1167</ele>
        <time>2025-09-26T12:33:13Z</time>
      </trkpt>
      <trkpt lat="43.9808" lon="6.68504">
        <ele>1167</ele>
        <time>2025-09-26T12:33:35Z</time>
      </trkpt>
      <trkpt lat="43.98091" lon="6.68497">
        <ele>1167</ele>
        <time>2025-09-26T12:33:52Z</time>
      </trkpt>
      <trkpt lat="43.98099" lon="6.68498">
        <ele>1167</ele>
        <time>2025-09-26T12:34:02Z</time>
      </trkpt>
      <trkpt lat="43.98122" lon="6.68493">
        <ele>1167</ele>
        <time>2025-09-26T12:34:33Z</time>
      </trkpt>
      <trkpt lat="43.98146" lon="6.68493">
        <ele>1169</ele>
        <time>2025-09-26T12:35:07Z</time>
      </trkpt>
      <trkpt lat="43.98158" lon="6.68492">
        <ele>1169</ele>
        <time>2025-09-26T12:35:23Z</time>
      </trkpt>
      <trkpt lat="43.9817" lon="6.68484">
        <ele>1170</ele>
        <time>2025-09-26T12:35:40Z</time>
      </trkpt>
      <trkpt lat="43.98168" lon="6.68461">
        <ele>1168</ele>
        <time>2025-09-26T12:36:04Z</time>
      </trkpt>
      <trkpt lat="43.98146" lon="6.68425">
        <ele>1162</ele>
        <time>2025-09-26T12:36:49Z</time>
      </trkpt>
      <trkpt lat="43.98133" lon="6.68385">
        <ele>1154</ele>
        <time>2025-09-26T12:37:31Z</time>
      </trkpt>
      <trkpt lat="43.98125" lon="6.68369">
        <ele>1149</ele>
        <time>2025-09-26T12:37:50Z</time>
      </trkpt>
      <trkpt lat="43.98134" lon="6.68351">
        <ele>1149</ele>
        <time>2025-09-26T12:38:11Z</time>
      </trkpt>
      <trkpt lat="43.98139" lon="6.68335">
        <ele>1147</ele>
        <time>2025-09-26T12:38:28Z</time>
      </trkpt>
      <trkpt lat="43.98147" lon="6.68331">
        <ele>1149</ele>
        <time>2025-09-26T12:38:40Z</time>
      </trkpt>
      <trkpt lat="43.9815" lon="6.68309">
        <ele>1145</ele>
        <time>2025-09-26T12:39:01Z</time>
      </trkpt>
      <trkpt lat="43.98166" lon="6.6827">
        <ele>1142</ele>
        <time>2025-09-26T12:39:44Z</time>
      </trkpt>
      <trkpt lat="43.98175" lon="6.68258">
        <ele>1142</ele>
        <time>2025-09-26T12:40:01Z</time>
      </trkpt>
      <trkpt lat="43.98187" lon="6.68251">
        <ele>1143</ele>
        <time>2025-09-26T12:40:18Z</time>
      </trkpt>
      <trkpt lat="43.98209" lon="6.6823">
        <ele>1145</ele>
        <time>2025-09-26T12:40:54Z</time>
      </trkpt>
      <trkpt lat="43.98245" lon="6.6819">
        <ele>1150</ele>
        <time>2025-09-26T12:41:55Z</time>
      </trkpt>
      <trkpt lat="43.98252" lon="6.68173">
        <ele>1149</ele>
        <time>2025-09-26T12:42:14Z</time>
      </trkpt>
      <trkpt lat="43.98254" lon="6.68158">
        <ele>1149</ele>
        <time>2025-09-26T12:42:29Z</time>
      </trkpt>
      <trkpt lat="43.98251" lon="6.68142">
        <ele>1148</ele>
        <time>2025-09-26T12:42:45Z</time>
      </trkpt>
      <trkpt lat="43.98252" lon="6.68107">
        <ele>1147</ele>
        <time>2025-09-26T12:43:25Z</time>
      </trkpt>
      <trkpt lat="43.98257" lon="6.68098">
        <ele>1149</ele>
        <time>2025-09-26T12:43:36Z</time>
      </trkpt>
      <trkpt lat="43.98301" lon="6.68052">
        <ele>1159</ele>
        <time>2025-09-26T12:44:50Z</time>
      </trkpt>
      <trkpt lat="43.98304" lon="6.68038">
        <ele>1158</ele>
        <time>2025-09-26T12:45:04Z</time>
      </trkpt>
      <trkpt lat="43.98311" lon="6.68027">
        <ele>1159</ele>
        <time>2025-09-26T12:45:18Z</time>
      </trkpt>
      <trkpt lat="43.9832" lon="6.68004">
        <ele>1159</ele>
        <time>2025-09-26T12:45:43Z</time>
      </trkpt>
      <trkpt lat="43.9834" lon="6.67981">
        <ele>1162</ele>
        <time>2025-09-26T12:46:18Z</time>
      </trkpt>
      <trkpt lat="43.98344" lon="6.67955">
        <ele>1159</ele>
        <time>2025-09-26T12:46:43Z</time>
      </trkpt>
      <trkpt lat="43.98355" lon="6.67931">
        <ele>1158</ele>
        <time>2025-09-26T12:47:11Z</time>
      </trkpt>
      <trkpt lat="43.98358" lon="6.67916">
        <ele>1156</ele>
        <time>2025-09-26T12:47:26Z</time>
      </trkpt>
      <trkpt lat="43.98364" lon="6.67903">
        <ele>1154</ele>
        <time>2025-09-26T12:47:40Z</time>
      </trkpt>
      <trkpt lat="43.98393" lon="6.679">
        <ele>1160</ele>
        <time>2025-09-26T12:48:21Z</time>
      </trkpt>
      <trkpt lat="43.98432" lon="6.67881">
        <ele>1164</ele>
        <time>2025-09-26T12:49:16Z</time>
      </trkpt>
      <trkpt lat="43.98482" lon="6.67914">
        <ele>1177</ele>
        <time>2025-09-26T12:50:30Z</time>
      </trkpt>
      <trkpt lat="43.98491" lon="6.67915">
        <ele>1179</ele>
        <time>2025-09-26T12:50:42Z</time>
      </trkpt>
      <trkpt lat="43.98498" lon="6.6792">
        <ele>1181</ele>
        <time>2025-09-26T12:50:53Z</time>
      </trkpt>
      <trkpt lat="43.98517" lon="6.67942">
        <ele>1190</ele>
        <time>2025-09-26T12:51:26Z</time>
      </trkpt>
      <trkpt lat="43.98529" lon="6.67946">
        <ele>1193</ele>
        <time>2025-09-26T12:51:43Z</time>
      </trkpt>
      <trkpt lat="43.9854" lon="6.67938">
        <ele>1194</ele>
        <time>2025-09-26T12:52:00Z</time>
      </trkpt>
      <trkpt lat="43.98544" lon="6.67915">
        <ele>1191</ele>
        <time>2025-09-26T12:52:22Z</time>
      </trkpt>
      <trkpt lat="43.98555" lon="6.67893">
        <ele>1192</ele>
        <time>2025-09-26T12:52:48Z</time>
      </trkpt>
      <trkpt lat="43.9857" lon="6.67889">
        <ele>1188.1</ele>
      </trkpt>
      <trkpt lat="43.98577" lon="6.6788">
        <ele>1189.8</ele>
      </trkpt>
      <trkpt lat="43.98586" lon="6.67866">
        <ele>1192.1</ele>
      </trkpt>
      <trkpt lat="43.98589" lon="6.67859">
        <ele>1192.8</ele>
      </trkpt>
      <trkpt lat="43.98589" lon="6.67844">
        <ele>1194</ele>
      </trkpt>
      <trkpt lat="43.98587" lon="6.67836">
        <ele>1193.9</ele>
      </trkpt>
      <trkpt lat="43.98582" lon="6.67825">
        <ele>1193.1</ele>
      </trkpt>
      <trkpt lat="43.98582" lon="6.67822">
        <ele>1193.3</ele>
      </trkpt>
      <trkpt lat="43.98583" lon="6.67818">
        <ele>1193.9</ele>
      </trkpt>
      <trkpt lat="43.98601" lon="6.67794">
        <ele>1201.1</ele>
      </trkpt>
      <trkpt lat="43.98607" lon="6.67792">
        <ele>1203.3</ele>
      </trkpt>
      <trkpt lat="43.98609" lon="6.67793">
        <ele>1204.3</ele>
      </trkpt>
      <trkpt lat="43.98613" lon="6.67798">
        <ele>1205.9</ele>
      </trkpt>
      <trkpt lat="43.98615" lon="6.67806">
        <ele>1206.8</ele>
      </trkpt>
      <trkpt lat="43.98618" lon="6.67807">
        <ele>1207.8</ele>
      </trkpt>
      <trkpt lat="43.98623" lon="6.67804">
        <ele>1210</ele>
      </trkpt>
      <trkpt lat="43.98625" lon="6.67801">
        <ele>1211</ele>
      </trkpt>
      <trkpt lat="43.9863" lon="6.67793">
        <ele>1213.3</ele>
      </trkpt>
      <trkpt lat="43.98633" lon="6.67787">
        <ele>1214.4</ele>
      </trkpt>
      <trkpt lat="43.98636" lon="6.67781">
        <ele>1215.7</ele>
      </trkpt>
      <trkpt lat="43.98648" lon="6.67771">
        <ele>1219.7</ele>
      </trkpt>
      <trkpt lat="43.98679" lon="6.67732">
        <ele>1220.4</ele>
      </trkpt>
      <trkpt lat="43.98688" lon="6.67724">
        <ele>1219.5</ele>
      </trkpt>
      <trkpt lat="43.98704" lon="6.67724">
        <ele>1221</ele>
      </trkpt>
      <trkpt lat="43.98739" lon="6.67714">
        <ele>1217.2</ele>
      </trkpt>
      <trkpt lat="43.98749" lon="6.6771">
        <ele>1215.3</ele>
      </trkpt>
      <trkpt lat="43.98759" lon="6.67709">
        <ele>1213.6</ele>
      </trkpt>
      <trkpt lat="43.98784" lon="6.67707">
        <ele>1210.2</ele>
      </trkpt>
      <trkpt lat="43.98859" lon="6.67755">
        <ele>1219.2</ele>
      </trkpt>
      <trkpt lat="43.98889" lon="6.67763">
        <ele>1220.1</ele>
        <extensions>
          <visugpx:TrkExtension xmlns:visugpx="https://www.visugpx.com/editgpx/">
            <visugpx:node>1</visugpx:node>
            </visugpx:TrkExtension>
        </extensions>
      </trkpt>
      <trkpt lat="43.98977" lon="6.67786">
        <ele>1228.7</ele>
      </trkpt>
      <trkpt lat="43.99005" lon="6.67777">
        <ele>1234</ele>
      </trkpt>
      <trkpt lat="43.99019" lon="6.6776">
        <ele>1237.7</ele>
      </trkpt>
      <trkpt lat="43.99044" lon="6.67699">
        <ele>1240.6</ele>
      </trkpt>
      <trkpt lat="43.99091" lon="6.67656">
        <ele>1253.4</ele>
      </trkpt>
      <trkpt lat="43.99142" lon="6.67632">
        <ele>1261.8</ele>
      </trkpt>
      <trkpt lat="43.9917" lon="6.6761">
        <ele>1264.7</ele>
      </trkpt>
      <trkpt lat="43.99248" lon="6.67581">
        <ele>1273</ele>
      </trkpt>
      <trkpt lat="43.99264" lon="6.67573">
        <ele>1271.3</ele>
      </trkpt>
      <trkpt lat="43.99298" lon="6.67567">
        <ele>1265.5</ele>
      </trkpt>
      <trkpt lat="43.9932" lon="6.67574">
        <ele>1264.5</ele>
      </trkpt>
      <trkpt lat="43.99431" lon="6.67585">
        <ele>1263.7</ele>
      </trkpt>
      <trkpt lat="43.99445" lon="6.67595">
        <ele>1266</ele>
      </trkpt>
      <trkpt lat="43.99478" lon="6.67597">
        <ele>1264.6</ele>
      </trkpt>
      <trkpt lat="43.99531" lon="6.67613">
        <ele>1267.5</ele>
      </trkpt>
      <trkpt lat="43.99545" lon="6.67597">
        <ele>1267</ele>
      </trkpt>
      <trkpt lat="43.99555" lon="6.67594">
        <ele>1268.8</ele>
      </trkpt>
      <trkpt lat="43.99556" lon="6.6758">
        <ele>1269.1</ele>
      </trkpt>
      <trkpt lat="43.99568" lon="6.67554">
        <ele>1273.8</ele>
      </trkpt>
      <trkpt lat="43.99571" lon="6.67492">
        <ele>1273.8</ele>
      </trkpt>
      <trkpt lat="43.9958" lon="6.67477">
        <ele>1276.4</ele>
      </trkpt>
      <trkpt lat="43.99603" lon="6.67459">
        <ele>1279.8</ele>
      </trkpt>
      <trkpt lat="43.99727" lon="6.67429">
        <ele>1291.5</ele>
      </trkpt>
      <trkpt lat="43.99766" lon="6.67435">
        <ele>1299.1</ele>
      </trkpt>
      <trkpt lat="43.99797" lon="6.67426">
        <ele>1299.1</ele>
      </trkpt>
      <trkpt lat="43.99877" lon="6.67463">
        <ele>1309.9</ele>
      </trkpt>
      <trkpt lat="43.99906" lon="6.67485">
        <ele>1304.6</ele>
      </trkpt>
      <trkpt lat="43.99965" lon="6.67457">
        <ele>1316.3</ele>
      </trkpt>
      <trkpt lat="43.99996" lon="6.67424">
        <ele>1321.2</ele>
      </trkpt>
      <trkpt lat="44.00009" lon="6.67417">
        <ele>1323.1</ele>
      </trkpt>
      <trkpt lat="44.00034" lon="6.67415">
        <ele>1328.8</ele>
      </trkpt>
      <trkpt lat="44.00085" lon="6.67423">
        <ele>1334.9</ele>
      </trkpt>
      <trkpt lat="44.00159" lon="6.6748">
        <ele>1341.7</ele>
      </trkpt>
      <trkpt lat="44.00177" lon="6.67496">
        <ele>1339</ele>
      </trkpt>
      <trkpt lat="44.00188" lon="6.67492">
        <ele>1339.7</ele>
      </trkpt>
      <trkpt lat="44.00206" lon="6.67498">
        <ele>1340</ele>
      </trkpt>
      <trkpt lat="44.00209" lon="6.67506">
        <ele>1337.3</ele>
      </trkpt>
      <trkpt lat="44.00216" lon="6.67506">
        <ele>1338.2</ele>
      </trkpt>
      <trkpt lat="44.00222" lon="6.67491">
        <ele>1341.3</ele>
      </trkpt>
      <trkpt lat="44.00226" lon="6.67492">
        <ele>1341.5</ele>
      </trkpt>
      <trkpt lat="44.00249" lon="6.67493">
        <ele>1342.7</ele>
      </trkpt>
      <trkpt lat="44.00281" lon="6.67502">
        <ele>1342.6</ele>
      </trkpt>
      <trkpt lat="44.003" lon="6.67505">
        <ele>1341.9</ele>
      </trkpt>
      <trkpt lat="44.00325" lon="6.67494">
        <ele>1341.8</ele>
      </trkpt>
      <trkpt lat="44.00336" lon="6.67496">
        <ele>1341.7</ele>
      </trkpt>
      <trkpt lat="44.00435" lon="6.67509">
        <ele>1339.2</ele>
      </trkpt>
      <trkpt lat="44.00468" lon="6.675">
        <ele>1338.5</ele>
      </trkpt>
      <trkpt lat="44.00486" lon="6.67462">
        <ele>1345.3</ele>
      </trkpt>
      <trkpt lat="44.00496" lon="6.67418">
        <ele>1350.9</ele>
      </trkpt>
      <trkpt lat="44.00508" lon="6.67397">
        <ele>1352.6</ele>
      </trkpt>
      <trkpt lat="44.00515" lon="6.67377">
        <ele>1353</ele>
      </trkpt>
      <trkpt lat="44.00529" lon="6.67371">
        <ele>1354.6</ele>
      </trkpt>
      <trkpt lat="44.00539" lon="6.67333">
        <ele>1353.6</ele>
      </trkpt>
      <trkpt lat="44.0058" lon="6.67262">
        <ele>1356.3</ele>
      </trkpt>
      <trkpt lat="44.00584" lon="6.67252">
        <ele>1356.2</ele>
        <extensions>
          <visugpx:TrkExtension xmlns:visugpx="https://www.visugpx.com/editgpx/">
            <visugpx:node>2</visugpx:node>
            </visugpx:TrkExtension>
        </extensions>
      </trkpt>
      <trkpt lat="44.0059" lon="6.67238">
        <ele>1356.2</ele>
      </trkpt>
      <trkpt lat="44.0058" lon="6.67234">
        <ele>1354.3</ele>
      </trkpt>
      <trkpt lat="44.00573" lon="6.67235">
        <ele>1353.4</ele>
      </trkpt>
      <trkpt lat="44.00559" lon="6.67239">
        <ele>1351.7</ele>
      </trkpt>
      <trkpt lat="44.00546" lon="6.67244">
        <ele>1350.2</ele>
      </trkpt>
      <trkpt lat="44.00528" lon="6.67239">
        <ele>1347.2</ele>
      </trkpt>
      <trkpt lat="44.0052" lon="6.67243">
        <ele>1346.1</ele>
      </trkpt>
      <trkpt lat="44.00512" lon="6.67239">
        <ele>1344.4</ele>
      </trkpt>
      <trkpt lat="44.00507" lon="6.67238">
        <ele>1343.3</ele>
      </trkpt>
      <trkpt lat="44.00497" lon="6.67243">
        <ele>1341.8</ele>
      </trkpt>
      <trkpt lat="44.00484" lon="6.67249">
        <ele>1339</ele>
      </trkpt>
      <trkpt lat="44.00464" lon="6.6725">
        <ele>1334.2</ele>
      </trkpt>
      <trkpt lat="44.00457" lon="6.67247">
        <ele>1332.6</ele>
      </trkpt>
      <trkpt lat="44.00445" lon="6.67246">
        <ele>1330</ele>
      </trkpt>
      <trkpt lat="44.00439" lon="6.67254">
        <ele>1329.5</ele>
      </trkpt>
      <trkpt lat="44.00429" lon="6.67261">
        <ele>1328.7</ele>
      </trkpt>
      <trkpt lat="44.00391" lon="6.67271">
        <ele>1325</ele>
      </trkpt>
      <trkpt lat="44.00317" lon="6.6728">
        <ele>1318</ele>
      </trkpt>
      <trkpt lat="44.00282" lon="6.67269">
        <ele>1311.3</ele>
      </trkpt>
      <trkpt lat="44.00277" lon="6.67269">
        <ele>1310.6</ele>
      </trkpt>
      <trkpt lat="44.00259" lon="6.67276">
        <ele>1309</ele>
      </trkpt>
      <trkpt lat="44.00238" lon="6.67272">
        <ele>1305.5</ele>
      </trkpt>
      <trkpt lat="44.00211" lon="6.67275">
        <ele>1302.1</ele>
      </trkpt>
      <trkpt lat="44.00192" lon="6.67272">
        <ele>1298.9</ele>
      </trkpt>
      <trkpt lat="44.00168" lon="6.6726">
        <ele>1294.6</ele>
      </trkpt>
      <trkpt lat="44.0015" lon="6.67252">
        <ele>1290.9</ele>
      </trkpt>
      <trkpt lat="44.00142" lon="6.67253">
        <ele>1289.8</ele>
      </trkpt>
      <trkpt lat="44.00137" lon="6.6725">
        <ele>1288.7</ele>
      </trkpt>
      <trkpt lat="44.00115" lon="6.67251">
        <ele>1286.6</ele>
      </trkpt>
      <trkpt lat="44.00078" lon="6.67237">
        <ele>1279.2</ele>
      </trkpt>
      <trkpt lat="44.00072" lon="6.67229">
        <ele>1276.5</ele>
      </trkpt>
      <trkpt lat="44.00068" lon="6.67211">
        <ele>1271.8</ele>
      </trkpt>
      <trkpt lat="44.00074" lon="6.67205">
        <ele>1271.2</ele>
      </trkpt>
      <trkpt lat="44.0006" lon="6.67195">
        <ele>1267.4</ele>
      </trkpt>
      <trkpt lat="44.00032" lon="6.67193">
        <ele>1262.5</ele>
      </trkpt>
      <trkpt lat="44.00016" lon="6.67205">
        <ele>1262.7</ele>
      </trkpt>
      <trkpt lat="44.00014" lon="6.6721">
        <ele>1263.8</ele>
      </trkpt>
      <trkpt lat="44.00005" lon="6.67215">
        <ele>1263.7</ele>
      </trkpt>
      <trkpt lat="44" lon="6.67219">
        <ele>1263.9</ele>
      </trkpt>
      <trkpt lat="43.99994" lon="6.67215">
        <ele>1261.8</ele>
      </trkpt>
      <trkpt lat="43.99957" lon="6.67208">
        <ele>1253.8</ele>
      </trkpt>
      <trkpt lat="43.99946" lon="6.67206">
        <ele>1251.8</ele>
      </trkpt>
      <trkpt lat="43.99935" lon="6.67196">
        <ele>1247.4</ele>
      </trkpt>
      <trkpt lat="43.99903" lon="6.67185">
        <ele>1240.4</ele>
      </trkpt>
      <trkpt lat="43.99867" lon="6.67183">
        <ele>1233.3</ele>
      </trkpt>
      <trkpt lat="43.99861" lon="6.67191">
        <ele>1234.1</ele>
      </trkpt>
      <trkpt lat="43.99861" lon="6.67202">
        <ele>1237.6</ele>
      </trkpt>
      <trkpt lat="43.99853" lon="6.67211">
        <ele>1239.4</ele>
      </trkpt>
      <trkpt lat="43.99846" lon="6.6721">
        <ele>1237.9</ele>
      </trkpt>
      <trkpt lat="43.99825" lon="6.67213">
        <ele>1236.2</ele>
      </trkpt>
      <trkpt lat="43.99808" lon="6.67201">
        <ele>1230.6</ele>
      </trkpt>
      <trkpt lat="43.99785" lon="6.67168">
        <ele>1223.3</ele>
      </trkpt>
      <trkpt lat="43.99752" lon="6.67147">
        <ele>1220.4</ele>
      </trkpt>
      <trkpt lat="43.99719" lon="6.67112">
        <ele>1212</ele>
      </trkpt>
      <trkpt lat="43.99696" lon="6.67105">
        <ele>1208.6</ele>
      </trkpt>
      <trkpt lat="43.9968" lon="6.67097">
        <ele>1205.3</ele>
      </trkpt>
      <trkpt lat="43.99667" lon="6.67095">
        <ele>1203.8</ele>
      </trkpt>
      <trkpt lat="43.9965" lon="6.67087">
        <ele>1200.5</ele>
      </trkpt>
      <trkpt lat="43.99643" lon="6.67083">
        <ele>1198.9</ele>
      </trkpt>
      <trkpt lat="43.99641" lon="6.6708">
        <ele>1198.1</ele>
      </trkpt>
      <trkpt lat="43.99641" lon="6.67077">
        <ele>1197.1</ele>
      </trkpt>
      <trkpt lat="43.99642" lon="6.67075">
        <ele>1196.4</ele>
      </trkpt>
      <trkpt lat="43.99648" lon="6.67071">
        <ele>1195.5</ele>
      </trkpt>
      <trkpt lat="43.9965" lon="6.67068">
        <ele>1194.9</ele>
      </trkpt>
      <trkpt lat="43.99647" lon="6.67063">
        <ele>1193.1</ele>
      </trkpt>
      <trkpt lat="43.99641" lon="6.67063">
        <ele>1192.5</ele>
      </trkpt>
      <trkpt lat="43.99636" lon="6.67059">
        <ele>1191</ele>
      </trkpt>
      <trkpt lat="43.99572" lon="6.67021">
        <ele>1174.3</ele>
      </trkpt>
      <trkpt lat="43.99553" lon="6.67013">
        <ele>1169.7</ele>
      </trkpt>
      <trkpt lat="43.99544" lon="6.67007">
        <ele>1166.6</ele>
      </trkpt>
      <trkpt lat="43.99532" lon="6.67009">
        <ele>1166.4</ele>
      </trkpt>
      <trkpt lat="43.99509" lon="6.67009">
        <ele>1163.8</ele>
      </trkpt>
      <trkpt lat="43.99504" lon="6.67007">
        <ele>1162.5</ele>
      </trkpt>
      <trkpt lat="43.995" lon="6.66999">
        <ele>1159.6</ele>
      </trkpt>
      <trkpt lat="43.995" lon="6.66993">
        <ele>1157.6</ele>
      </trkpt>
      <trkpt lat="43.99489" lon="6.6698">
        <ele>1152.9</ele>
      </trkpt>
      <trkpt lat="43.99481" lon="6.66971">
        <ele>1150</ele>
      </trkpt>
      <trkpt lat="43.99438" lon="6.66976">
        <ele>1147.8</ele>
      </trkpt>
      <trkpt lat="43.99427" lon="6.66974">
        <ele>1145.9</ele>
      </trkpt>
      <trkpt lat="43.99388" lon="6.67001">
        <ele>1146</ele>
      </trkpt>
      <trkpt lat="43.99378" lon="6.67003">
        <ele>1143.8</ele>
      </trkpt>
      <trkpt lat="43.99348" lon="6.66999">
        <ele>1133</ele>
      </trkpt>
      <trkpt lat="43.99294" lon="6.67032">
        <ele>1121.8</ele>
      </trkpt>
      <trkpt lat="43.99273" lon="6.67034">
        <ele>1114.9</ele>
      </trkpt>
      <trkpt lat="43.9926" lon="6.67031">
        <ele>1109.9</ele>
      </trkpt>
      <trkpt lat="43.99258" lon="6.67018">
        <ele>1107.5</ele>
      </trkpt>
      <trkpt lat="43.99257" lon="6.67014">
        <ele>1106.7</ele>
      </trkpt>
      <trkpt lat="43.99246" lon="6.67013">
        <ele>1103.3</ele>
      </trkpt>
      <trkpt lat="43.99242" lon="6.67018">
        <ele>1102.5</ele>
      </trkpt>
      <trkpt lat="43.99236" lon="6.67017">
        <ele>1100.7</ele>
      </trkpt>
      <trkpt lat="43.99231" lon="6.67014">
        <ele>1099</ele>
      </trkpt>
      <trkpt lat="43.99217" lon="6.66987">
        <ele>1094</ele>
      </trkpt>
      <trkpt lat="43.99205" lon="6.66978">
        <ele>1091.2</ele>
      </trkpt>
      <trkpt lat="43.99187" lon="6.66976">
        <ele>1087.1</ele>
      </trkpt>
      <trkpt lat="43.99185" lon="6.66975">
        <ele>1086.3</ele>
      </trkpt>
      <trkpt lat="43.9918" lon="6.66979">
        <ele>1085.3</ele>
      </trkpt>
      <trkpt lat="43.9918" lon="6.66984">
        <ele>1085.6</ele>
      </trkpt>
      <trkpt lat="43.99184" lon="6.66998">
        <ele>1087.6</ele>
      </trkpt>
      <trkpt lat="43.9918" lon="6.67007">
        <ele>1087.8</ele>
      </trkpt>
      <trkpt lat="43.99173" lon="6.67011">
        <ele>1087.3</ele>
      </trkpt>
      <trkpt lat="43.99168" lon="6.67015">
        <ele>1087.4</ele>
      </trkpt>
      <trkpt lat="43.99167" lon="6.67012">
        <ele>1086.5</ele>
      </trkpt>
      <trkpt lat="43.99162" lon="6.67008">
        <ele>1085.5</ele>
      </trkpt>
      <trkpt lat="43.99151" lon="6.67006">
        <ele>1084.6</ele>
      </trkpt>
      <trkpt lat="43.99107" lon="6.66965">
        <ele>1074.2</ele>
      </trkpt>
      <trkpt lat="43.99084" lon="6.66956">
        <ele>1074</ele>
      </trkpt>
      <trkpt lat="43.99043" lon="6.66948">
        <ele>1076.2</ele>
      </trkpt>
      <trkpt lat="43.98986" lon="6.66923">
        <ele>1072.1</ele>
      </trkpt>
      <trkpt lat="43.9895" lon="6.6692">
        <ele>1071.9</ele>
      </trkpt>
      <trkpt lat="43.98932" lon="6.66914">
        <ele>1069.1</ele>
      </trkpt>
      <trkpt lat="43.98921" lon="6.66902">
        <ele>1065.7</ele>
      </trkpt>
      <trkpt lat="43.98907" lon="6.66887">
        <ele>1060.6</ele>
      </trkpt>
      <trkpt lat="43.98898" lon="6.66887">
        <ele>1058.7</ele>
      </trkpt>
      <trkpt lat="43.98863" lon="6.66861">
        <ele>1046.6</ele>
      </trkpt>
      <trkpt lat="43.98858" lon="6.66862">
        <ele>1045.3</ele>
      </trkpt>
      <trkpt lat="43.98843" lon="6.66856">
        <ele>1040.8</ele>
      </trkpt>
      <trkpt lat="43.98838" lon="6.66858">
        <ele>1039.9</ele>
      </trkpt>
      <trkpt lat="43.98812" lon="6.66867">
        <ele>1035.8</ele>
      </trkpt>
      <trkpt lat="43.98797" lon="6.66866">
        <ele>1031.5</ele>
      </trkpt>
      <trkpt lat="43.98785" lon="6.66869">
        <ele>1029</ele>
      </trkpt>
      <trkpt lat="43.98766" lon="6.6688">
        <ele>1026.3</ele>
      </trkpt>
      <trkpt lat="43.98762" lon="6.66879">
        <ele>1024.8</ele>
      </trkpt>
      <trkpt lat="43.98756" lon="6.6688">
        <ele>1023.3</ele>
      </trkpt>
      <trkpt lat="43.98746" lon="6.66876">
        <ele>1019.2</ele>
      </trkpt>
      <trkpt lat="43.98741" lon="6.66875">
        <ele>1017.5</ele>
      </trkpt>
      <trkpt lat="43.98737" lon="6.6688">
        <ele>1017.4</ele>
      </trkpt>
      <trkpt lat="43.98736" lon="6.66889">
        <ele>1019.4</ele>
      </trkpt>
      <trkpt lat="43.98734" lon="6.66894">
        <ele>1020.7</ele>
      </trkpt>
      <trkpt lat="43.9873" lon="6.66897">
        <ele>1020.4</ele>
      </trkpt>
      <trkpt lat="43.98732" lon="6.66894">
        <ele>1019.7</ele>
      </trkpt>
      <trkpt lat="43.98731" lon="6.66884">
        <ele>1016.6</ele>
      </trkpt>
      <trkpt lat="43.98729" lon="6.66884">
        <ele>1015.8</ele>
      </trkpt>
      <trkpt lat="43.98724" lon="6.66878">
        <ele>1012.6</ele>
      </trkpt>
      <trkpt lat="43.98689" lon="6.66885">
        <ele>1004.3</ele>
      </trkpt>
      <trkpt lat="43.98653" lon="6.66877">
        <ele>992.2</ele>
      </trkpt>
      <trkpt lat="43.9861" lon="6.66893">
        <ele>987.1</ele>
      </trkpt>
      <trkpt lat="43.98578" lon="6.66905">
        <ele>982.1</ele>
      </trkpt>
      <trkpt lat="43.9855" lon="6.66904">
        <ele>972.9</ele>
      </trkpt>
      <trkpt lat="43.98547" lon="6.66905">
        <ele>972.2</ele>
      </trkpt>
      <trkpt lat="43.98535" lon="6.66923">
        <ele>973.8</ele>
      </trkpt>
      <trkpt lat="43.98517" lon="6.66927">
        <ele>968.5</ele>
      </trkpt>
      <trkpt lat="43.98511" lon="6.66931">
        <ele>967.3</ele>
      </trkpt>
      <trkpt lat="43.98505" lon="6.66931">
        <ele>965.1</ele>
      </trkpt>
      <trkpt lat="43.98491" lon="6.66947">
        <ele>964.1</ele>
      </trkpt>
      <trkpt lat="43.98472" lon="6.66961">
        <ele>959.5</ele>
      </trkpt>
      <trkpt lat="43.98466" lon="6.6697">
        <ele>960.1</ele>
      </trkpt>
      <trkpt lat="43.98464" lon="6.66984">
        <ele>963.1</ele>
      </trkpt>
      <trkpt lat="43.98441" lon="6.67">
        <ele>963.3</ele>
      </trkpt>
      <trkpt lat="43.98431" lon="6.66987">
        <ele>960.3</ele>
      </trkpt>
      <trkpt lat="43.98418" lon="6.66979">
        <ele>958.4</ele>
      </trkpt>
      <trkpt lat="43.98402" lon="6.66967">
        <ele>957.3</ele>
      </trkpt>
      <trkpt lat="43.98333" lon="6.66896">
        <ele>947.2</ele>
      </trkpt>
      <trkpt lat="43.98328" lon="6.6689">
        <ele>946</ele>
      </trkpt>
      <trkpt lat="43.98322" lon="6.6688">
        <ele>943.9</ele>
      </trkpt>
      <trkpt lat="43.98316" lon="6.66877">
        <ele>944.7</ele>
      </trkpt>
      <trkpt lat="43.98308" lon="6.66861">
        <ele>940.3</ele>
      </trkpt>
      <trkpt lat="43.98267" lon="6.6678">
        <ele>927.7</ele>
      </trkpt>
      <trkpt lat="43.98239" lon="6.66764">
        <ele>926.6</ele>
      </trkpt>
      <trkpt lat="43.98221" lon="6.6675">
        <ele>924</ele>
      </trkpt>
      <trkpt lat="43.98213" lon="6.6675">
        <ele>923.7</ele>
      </trkpt>
      <trkpt lat="43.98203" lon="6.66749">
        <ele>923.2</ele>
      </trkpt>
      <trkpt lat="43.98173" lon="6.66758">
        <ele>921.7</ele>
      </trkpt>
      <trkpt lat="43.98156" lon="6.66771">
        <ele>922</ele>
      </trkpt>
      <trkpt lat="43.98152" lon="6.66773">
        <ele>921.5</ele>
      </trkpt>
      <trkpt lat="43.98148" lon="6.66781">
        <ele>922.2</ele>
      </trkpt>
      <trkpt lat="43.98141" lon="6.66787">
        <ele>922.5</ele>
      </trkpt>
      <trkpt lat="43.98139" lon="6.66786">
        <ele>921.8</ele>
      </trkpt>
      <trkpt lat="43.98133" lon="6.66784">
        <ele>920.6</ele>
      </trkpt>
      <trkpt lat="43.98112" lon="6.66791">
        <ele>918.5</ele>
      </trkpt>
      <trkpt lat="43.98105" lon="6.66801">
        <ele>918.7</ele>
        <extensions>
          <visugpx:TrkExtension xmlns:visugpx="https://www.visugpx.com/editgpx/">
            <visugpx:node>3</visugpx:node>
            </visugpx:TrkExtension>
        </extensions>
      </trkpt>
      <trkpt lat="43.98072" lon="6.66831">
        <ele>934</ele>
        <time>2025-09-26T13:41:33Z</time>
      </trkpt>
      <trkpt lat="43.98076" lon="6.66822">
        <ele>935</ele>
        <time>2025-09-26T13:41:43Z</time>
      </trkpt>
      <trkpt lat="43.98088" lon="6.66814">
        <ele>935</ele>
        <time>2025-09-26T13:42:01Z</time>
      </trkpt>
      <trkpt lat="43.98096" lon="6.66798">
        <ele>937</ele>
        <time>2025-09-26T13:42:20Z</time>
      </trkpt>
      <trkpt lat="43.98097" lon="6.66787">
        <ele>938</ele>
        <time>2025-09-26T13:42:30Z</time>
      </trkpt>
      <trkpt lat="43.98108" lon="6.66774">
        <ele>938</ele>
        <time>2025-09-26T13:42:49Z</time>
      </trkpt>
      <trkpt lat="43.98112" lon="6.66763">
        <ele>938</ele>
        <time>2025-09-26T13:43:04Z</time>
      </trkpt>
      <trkpt lat="43.98116" lon="6.66751">
        <ele>937</ele>
        <time>2025-09-26T13:43:18Z</time>
      </trkpt>
      <trkpt lat="43.98108" lon="6.66748">
        <ele>939</ele>
        <time>2025-09-26T13:43:29Z</time>
      </trkpt>
      <trkpt lat="43.98122" lon="6.66721">
        <ele>943</ele>
        <time>2025-09-26T13:44:01Z</time>
      </trkpt>
      <trkpt lat="43.98102" lon="6.66729">
        <ele>944</ele>
        <time>2025-09-26T13:44:29Z</time>
      </trkpt>
      <trkpt lat="43.98099" lon="6.66715">
        <ele>948</ele>
        <time>2025-09-26T13:44:54Z</time>
      </trkpt>
      <trkpt lat="43.98103" lon="6.66702">
        <ele>951</ele>
        <time>2025-09-26T13:45:13Z</time>
      </trkpt>
      <trkpt lat="43.98096" lon="6.66697">
        <ele>953</ele>
        <time>2025-09-26T13:45:28Z</time>
      </trkpt>
      <trkpt lat="43.98102" lon="6.66683">
        <ele>956</ele>
        <time>2025-09-26T13:45:44Z</time>
      </trkpt>
      <trkpt lat="43.98096" lon="6.66677">
        <ele>958</ele>
        <time>2025-09-26T13:45:53Z</time>
      </trkpt>
      <trkpt lat="43.98089" lon="6.66648">
        <ele>969</ele>
        <time>2025-09-26T13:46:23Z</time>
      </trkpt>
      <trkpt lat="43.98081" lon="6.66646">
        <ele>972</ele>
        <time>2025-09-26T13:46:34Z</time>
      </trkpt>
      <trkpt lat="43.98084" lon="6.66631">
        <ele>975</ele>
        <time>2025-09-26T13:46:49Z</time>
      </trkpt>
      <trkpt lat="43.98075" lon="6.66627">
        <ele>980</ele>
        <time>2025-09-26T13:47:02Z</time>
      </trkpt>
      <trkpt lat="43.98075" lon="6.66637">
        <ele>977</ele>
        <time>2025-09-26T13:47:11Z</time>
      </trkpt>
      <trkpt lat="43.98069" lon="6.66651">
        <ele>976</ele>
        <time>2025-09-26T13:47:27Z</time>
      </trkpt>
      <trkpt lat="43.98062" lon="6.6666">
        <ele>977</ele>
        <time>2025-09-26T13:47:40Z</time>
      </trkpt>
      <trkpt lat="43.98061" lon="6.66643">
        <ele>982</ele>
        <time>2025-09-26T13:47:56Z</time>
      </trkpt>
      <trkpt lat="43.98055" lon="6.66636">
        <ele>987</ele>
        <time>2025-09-26T13:48:07Z</time>
      </trkpt>
      <trkpt lat="43.98048" lon="6.66653">
        <ele>986</ele>
        <time>2025-09-26T13:48:25Z</time>
      </trkpt>
      <trkpt lat="43.98046" lon="6.66643">
        <ele>990</ele>
        <time>2025-09-26T13:48:35Z</time>
      </trkpt>
      <trkpt lat="43.98038" lon="6.66638">
        <ele>995</ele>
        <time>2025-09-26T13:48:47Z</time>
      </trkpt>
      <trkpt lat="43.98031" lon="6.6662">
        <ele>1002</ele>
        <time>2025-09-26T13:49:08Z</time>
      </trkpt>
      <trkpt lat="43.98023" lon="6.66626">
        <ele>1004</ele>
        <time>2025-09-26T13:49:23Z</time>
      </trkpt>
      <trkpt lat="43.98015" lon="6.6662">
        <ele>1009</ele>
        <time>2025-09-26T13:49:35Z</time>
      </trkpt>
      <trkpt lat="43.98007" lon="6.66622">
        <ele>1012</ele>
        <time>2025-09-26T13:49:47Z</time>
      </trkpt>
      <trkpt lat="43.97999" lon="6.66614">
        <ele>1017</ele>
        <time>2025-09-26T13:50:00Z</time>
      </trkpt>
      <trkpt lat="43.98004" lon="6.66585">
        <ele>1019</ele>
        <time>2025-09-26T13:50:29Z</time>
      </trkpt>
      <trkpt lat="43.97988" lon="6.66595">
        <ele>1025</ele>
        <time>2025-09-26T13:50:56Z</time>
      </trkpt>
      <trkpt lat="43.97979" lon="6.66598">
        <ele>1029</ele>
        <time>2025-09-26T13:51:09Z</time>
      </trkpt>
      <trkpt lat="43.97972" lon="6.66582">
        <ele>1034</ele>
        <time>2025-09-26T13:51:30Z</time>
      </trkpt>
      <trkpt lat="43.97976" lon="6.66571">
        <ele>1033</ele>
        <time>2025-09-26T13:51:42Z</time>
      </trkpt>
      <trkpt lat="43.97976" lon="6.66561">
        <ele>1034</ele>
        <time>2025-09-26T13:51:51Z</time>
      </trkpt>
      <trkpt lat="43.97968" lon="6.66529">
        <ele>1040</ele>
        <time>2025-09-26T13:52:24Z</time>
      </trkpt>
      <trkpt lat="43.9797" lon="6.66517">
        <ele>1041</ele>
        <time>2025-09-26T13:52:36Z</time>
      </trkpt>
      <trkpt lat="43.97946" lon="6.66529">
        <ele>1046</ele>
        <time>2025-09-26T13:53:11Z</time>
      </trkpt>
      <trkpt lat="43.97942" lon="6.66544">
        <ele>1047</ele>
        <time>2025-09-26T13:53:27Z</time>
      </trkpt>
      <trkpt lat="43.97932" lon="6.66549">
        <ele>1050</ele>
        <time>2025-09-26T13:53:41Z</time>
      </trkpt>
      <trkpt lat="43.97918" lon="6.66551">
        <ele>1055</ele>
        <time>2025-09-26T13:54:00Z</time>
      </trkpt>
      <trkpt lat="43.97904" lon="6.66566">
        <ele>1057</ele>
        <time>2025-09-26T13:54:24Z</time>
      </trkpt>
      <trkpt lat="43.97886" lon="6.66574">
        <ele>1058</ele>
        <time>2025-09-26T13:54:49Z</time>
      </trkpt>
      <trkpt lat="43.97866" lon="6.66572">
        <ele>1057</ele>
        <time>2025-09-26T13:55:16Z</time>
      </trkpt>
      <trkpt lat="43.9786" lon="6.66565">
        <ele>1056</ele>
        <time>2025-09-26T13:55:27Z</time>
      </trkpt>
      <trkpt lat="43.97841" lon="6.66567">
        <ele>1056</ele>
        <time>2025-09-26T13:55:52Z</time>
      </trkpt>
      <trkpt lat="43.97829" lon="6.66572">
        <ele>1056</ele>
        <time>2025-09-26T13:56:09Z</time>
      </trkpt>
      <trkpt lat="43.97791" lon="6.66576">
        <ele>1052</ele>
        <time>2025-09-26T13:57:00Z</time>
      </trkpt>
      <trkpt lat="43.97761" lon="6.66574">
        <ele>1047</ele>
        <time>2025-09-26T13:57:41Z</time>
      </trkpt>
      <trkpt lat="43.97745" lon="6.66579">
        <ele>1046</ele>
        <time>2025-09-26T13:58:03Z</time>
      </trkpt>
      <trkpt lat="43.97738" lon="6.66584">
        <ele>1045</ele>
        <time>2025-09-26T13:58:13Z</time>
      </trkpt>
      <trkpt lat="43.97715" lon="6.66583">
        <ele>1039</ele>
        <time>2025-09-26T13:58:45Z</time>
      </trkpt>
      <trkpt lat="43.97703" lon="6.6659">
        <ele>1037</ele>
        <time>2025-09-26T13:59:02Z</time>
      </trkpt>
      <trkpt lat="43.97688" lon="6.66591">
        <ele>1033</ele>
        <time>2025-09-26T13:59:22Z</time>
      </trkpt>
      <trkpt lat="43.97671" lon="6.66597">
        <ele>1030</ele>
        <time>2025-09-26T13:59:46Z</time>
      </trkpt>
      <trkpt lat="43.97663" lon="6.66613">
        <ele>1030</ele>
        <time>2025-09-26T14:00:05Z</time>
      </trkpt>
      <trkpt lat="43.97651" lon="6.66614">
        <ele>1027</ele>
        <time>2025-09-26T14:00:22Z</time>
      </trkpt>
      <trkpt lat="43.97652" lon="6.66602">
        <ele>1026</ele>
        <time>2025-09-26T14:00:33Z</time>
      </trkpt>
      <trkpt lat="43.97657" lon="6.66594">
        <ele>1026</ele>
        <time>2025-09-26T14:00:44Z</time>
      </trkpt>
      <trkpt lat="43.9765" lon="6.66589">
        <ele>1024</ele>
        <time>2025-09-26T14:00:56Z</time>
      </trkpt>
      <trkpt lat="43.97643" lon="6.66594">
        <ele>1023</ele>
        <time>2025-09-26T14:01:06Z</time>
      </trkpt>
      <trkpt lat="43.97635" lon="6.66594">
        <ele>1021</ele>
        <time>2025-09-26T14:01:17Z</time>
      </trkpt>
      <trkpt lat="43.97628" lon="6.66591">
        <ele>1019</ele>
        <time>2025-09-26T14:01:27Z</time>
      </trkpt>
      <trkpt lat="43.97623" lon="6.6658">
        <ele>1016</ele>
        <time>2025-09-26T14:01:41Z</time>
      </trkpt>
      <trkpt lat="43.97612" lon="6.66585">
        <ele>1015</ele>
        <time>2025-09-26T14:01:57Z</time>
      </trkpt>
      <trkpt lat="43.97598" lon="6.66586">
        <ele>1012</ele>
        <time>2025-09-26T14:02:17Z</time>
      </trkpt>
      <trkpt lat="43.97589" lon="6.66581">
        <ele>1009</ele>
        <time>2025-09-26T14:02:30Z</time>
      </trkpt>
      <trkpt lat="43.97574" lon="6.6658">
        <ele>1005</ele>
        <time>2025-09-26T14:03:01Z</time>
      </trkpt>
      <trkpt lat="43.97547" lon="6.66593">
        <ele>999</ele>
        <time>2025-09-26T14:03:40Z</time>
      </trkpt>
      <trkpt lat="43.97535" lon="6.66598">
        <ele>996</ele>
        <time>2025-09-26T14:04:00Z</time>
      </trkpt>
      <trkpt lat="43.9753" lon="6.66589">
        <ele>995</ele>
        <time>2025-09-26T14:04:10Z</time>
      </trkpt>
      <trkpt lat="43.97513" lon="6.66581">
        <ele>991</ele>
        <time>2025-09-26T14:04:34Z</time>
      </trkpt>
      <trkpt lat="43.97502" lon="6.66583">
        <ele>988</ele>
        <time>2025-09-26T14:04:49Z</time>
      </trkpt>
      <trkpt lat="43.97495" lon="6.66576">
        <ele>986</ele>
        <time>2025-09-26T14:05:01Z</time>
      </trkpt>
      <trkpt lat="43.97485" lon="6.66582">
        <ele>984</ele>
        <time>2025-09-26T14:05:15Z</time>
      </trkpt>
      <trkpt lat="43.9746" lon="6.66607">
        <ele>978</ele>
        <time>2025-09-26T14:05:56Z</time>
      </trkpt>
      <trkpt lat="43.97452" lon="6.66612">
        <ele>976</ele>
        <time>2025-09-26T14:06:08Z</time>
      </trkpt>
      <trkpt lat="43.97441" lon="6.66612">
        <ele>974</ele>
        <time>2025-09-26T14:06:23Z</time>
      </trkpt>
      <trkpt lat="43.97433" lon="6.66616">
        <ele>972</ele>
        <time>2025-09-26T14:06:34Z</time>
      </trkpt>
      <trkpt lat="43.97423" lon="6.66615">
        <ele>970</ele>
        <time>2025-09-26T14:06:47Z</time>
      </trkpt>
      <trkpt lat="43.974" lon="6.66627">
        <ele>965</ele>
        <time>2025-09-26T14:07:20Z</time>
      </trkpt>
      <trkpt lat="43.97352" lon="6.66648">
        <ele>956</ele>
        <time>2025-09-26T14:08:29Z</time>
      </trkpt>
      <trkpt lat="43.97342" lon="6.66662">
        <ele>954</ele>
        <time>2025-09-26T14:08:48Z</time>
      </trkpt>
      <trkpt lat="43.97334" lon="6.66668">
        <ele>952</ele>
        <time>2025-09-26T14:09:01Z</time>
      </trkpt>
      <trkpt lat="43.97305" lon="6.66675">
        <ele>932</ele>
        <time>2025-09-26T14:09:41Z</time>
      </trkpt>
      <trkpt lat="43.97294" lon="6.66687">
        <ele>918</ele>
        <time>2025-09-26T14:09:59Z</time>
      </trkpt>
      <trkpt lat="43.97281" lon="6.66683">
        <ele>913</ele>
        <time>2025-09-26T14:10:17Z</time>
      </trkpt>
      <trkpt lat="43.97269" lon="6.66688">
        <ele>903</ele>
        <time>2025-09-26T14:10:34Z</time>
      </trkpt>
      <trkpt lat="43.9726" lon="6.66682">
        <ele>903</ele>
        <time>2025-09-26T14:10:47Z</time>
      </trkpt>
      <trkpt lat="43.9726" lon="6.66682">
        <ele>903</ele>
        <time>2025-09-26T14:11:14Z</time>
      </trkpt>
      <trkpt lat="43.97269" lon="6.66688">
        <ele>903</ele>
        <time>2025-09-26T14:11:27Z</time>
      </trkpt>
      <trkpt lat="43.97281" lon="6.66683">
        <ele>913</ele>
        <time>2025-09-26T14:11:44Z</time>
      </trkpt>
      <trkpt lat="43.97294" lon="6.66687">
        <ele>918</ele>
        <time>2025-09-26T14:12:01Z</time>
      </trkpt>
      <trkpt lat="43.97305" lon="6.66675">
        <ele>932</ele>
        <time>2025-09-26T14:12:20Z</time>
      </trkpt>
      <trkpt lat="43.97334" lon="6.66668">
        <ele>952</ele>
        <time>2025-09-26T14:12:59Z</time>
      </trkpt>
      <trkpt lat="43.97342" lon="6.66662">
        <ele>954</ele>
        <time>2025-09-26T14:13:13Z</time>
      </trkpt>
      <trkpt lat="43.97352" lon="6.66648">
        <ele>956</ele>
        <time>2025-09-26T14:13:32Z</time>
      </trkpt>
      <trkpt lat="43.97382" lon="6.66634">
        <ele>961</ele>
        <time>2025-09-26T14:14:14Z</time>
      </trkpt>
      <trkpt lat="43.97423" lon="6.66615">
        <ele>970</ele>
        <time>2025-09-26T14:15:13Z</time>
      </trkpt>
      <trkpt lat="43.97433" lon="6.66616">
        <ele>972</ele>
        <time>2025-09-26T14:15:27Z</time>
      </trkpt>
      <trkpt lat="43.97441" lon="6.66612">
        <ele>974</ele>
        <time>2025-09-26T14:15:38Z</time>
      </trkpt>
      <trkpt lat="43.97452" lon="6.66612">
        <ele>976</ele>
        <time>2025-09-26T14:15:53Z</time>
      </trkpt>
      <trkpt lat="43.9746" lon="6.66607">
        <ele>978</ele>
        <time>2025-09-26T14:16:04Z</time>
      </trkpt>
      <trkpt lat="43.97485" lon="6.66582">
        <ele>984</ele>
        <time>2025-09-26T14:16:45Z</time>
      </trkpt>
      <trkpt lat="43.97495" lon="6.66576">
        <ele>986</ele>
        <time>2025-09-26T14:17:00Z</time>
      </trkpt>
      <trkpt lat="43.9751" lon="6.66553">
        <ele>986</ele>
        <time>2025-09-26T14:17:30Z</time>
      </trkpt>
      <trkpt lat="43.97523" lon="6.66511">
        <ele>982</ele>
        <time>2025-09-26T14:18:15Z</time>
      </trkpt>
      <trkpt lat="43.97521" lon="6.66478">
        <ele>975</ele>
        <time>2025-09-26T14:18:47Z</time>
      </trkpt>
      <trkpt lat="43.97515" lon="6.66454">
        <ele>968</ele>
        <time>2025-09-26T14:19:11Z</time>
      </trkpt>
      <trkpt lat="43.97506" lon="6.66455">
        <ele>966</ele>
        <time>2025-09-26T14:19:24Z</time>
      </trkpt>
      <trkpt lat="43.97508" lon="6.66436">
        <ele>962</ele>
        <time>2025-09-26T14:19:52Z</time>
      </trkpt>
      <trkpt lat="43.97514" lon="6.66422">
        <ele>960</ele>
        <time>2025-09-26T14:20:09Z</time>
      </trkpt>
      <trkpt lat="43.97523" lon="6.6641">
        <ele>959</ele>
        <time>2025-09-26T14:20:27Z</time>
      </trkpt>
      <trkpt lat="43.97537" lon="6.66399">
        <ele>960</ele>
        <time>2025-09-26T14:20:49Z</time>
      </trkpt>
      <trkpt lat="43.97548" lon="6.66372">
        <ele>956</ele>
        <time>2025-09-26T14:21:20Z</time>
      </trkpt>
      <trkpt lat="43.97541" lon="6.66366">
        <ele>953</ele>
        <time>2025-09-26T14:21:31Z</time>
      </trkpt>
      <trkpt lat="43.97529" lon="6.66368">
        <ele>950</ele>
        <time>2025-09-26T14:21:47Z</time>
      </trkpt>
      <trkpt lat="43.97524" lon="6.66359">
        <ele>947</ele>
        <time>2025-09-26T14:21:58Z</time>
      </trkpt>
      <trkpt lat="43.97515" lon="6.66363">
        <ele>945</ele>
        <time>2025-09-26T14:22:11Z</time>
      </trkpt>
      <trkpt lat="43.97525" lon="6.66331">
        <ele>940</ele>
        <time>2025-09-26T14:22:50Z</time>
      </trkpt>
      <trkpt lat="43.9751" lon="6.66337">
        <ele>938</ele>
        <time>2025-09-26T14:23:11Z</time>
      </trkpt>
      <trkpt lat="43.97492" lon="6.66329">
        <ele>930</ele>
        <time>2025-09-26T14:23:37Z</time>
      </trkpt>
      <trkpt lat="43.97477" lon="6.66338">
        <ele>927</ele>
        <time>2025-09-26T14:23:58Z</time>
      </trkpt>
      <trkpt lat="43.97471" lon="6.66314">
        <ele>920</ele>
        <time>2025-09-26T14:24:23Z</time>
      </trkpt>
      <trkpt lat="43.97463" lon="6.66303">
        <ele>915</ele>
        <time>2025-09-26T14:24:38Z</time>
      </trkpt>
      <trkpt lat="43.97461" lon="6.66292">
        <ele>912</ele>
        <time>2025-09-26T14:24:49Z</time>
      </trkpt>
      <trkpt lat="43.97466" lon="6.6628">
        <ele>911</ele>
        <time>2025-09-26T14:25:03Z</time>
      </trkpt>
      <trkpt lat="43.97465" lon="6.66271">
        <ele>908</ele>
        <time>2025-09-26T14:25:28Z</time>
      </trkpt>
      <trkpt lat="43.97459" lon="6.66277">
        <ele>907</ele>
        <time>2025-09-26T14:25:39Z</time>
      </trkpt>
      <trkpt lat="43.97447" lon="6.66282">
        <ele>904</ele>
        <time>2025-09-26T14:25:59Z</time>
      </trkpt>
      <trkpt lat="43.97431" lon="6.66295">
        <ele>901</ele>
        <time>2025-09-26T14:26:26Z</time>
      </trkpt>
      <trkpt lat="43.97429" lon="6.66271">
        <ele>894</ele>
        <time>2025-09-26T14:26:54Z</time>
      </trkpt>
      <trkpt lat="43.97434" lon="6.66252">
        <ele>892</ele>
        <time>2025-09-26T14:27:13Z</time>
      </trkpt>
      <trkpt lat="43.97407" lon="6.66275">
        <ele>887</ele>
        <time>2025-09-26T14:28:00Z</time>
      </trkpt>
      <trkpt lat="43.97398" lon="6.66279">
        <ele>885</ele>
        <time>2025-09-26T14:28:12Z</time>
      </trkpt>
      <trkpt lat="43.97388" lon="6.66289">
        <ele>884</ele>
        <time>2025-09-26T14:28:34Z</time>
      </trkpt>
      <trkpt lat="43.97377" lon="6.66285">
        <ele>879</ele>
        <time>2025-09-26T14:28:50Z</time>
      </trkpt>
      <trkpt lat="43.97371" lon="6.66292">
        <ele>879</ele>
        <time>2025-09-26T14:29:00Z</time>
      </trkpt>
      <trkpt lat="43.97351" lon="6.66305">
        <ele>876</ele>
        <time>2025-09-26T14:29:30Z</time>
      </trkpt>
      <trkpt lat="43.97341" lon="6.66316">
        <ele>876</ele>
        <time>2025-09-26T14:29:47Z</time>
      </trkpt>
      <trkpt lat="43.97332" lon="6.66317">
        <ele>873</ele>
        <time>2025-09-26T14:29:59Z</time>
      </trkpt>
      <trkpt lat="43.97323" lon="6.66321">
        <ele>872</ele>
        <time>2025-09-26T14:30:12Z</time>
      </trkpt>
      <trkpt lat="43.9731" lon="6.66335">
        <ele>872</ele>
        <time>2025-09-26T14:30:34Z</time>
      </trkpt>
      <trkpt lat="43.97291" lon="6.66347">
        <ele>869</ele>
        <time>2025-09-26T14:31:02Z</time>
      </trkpt>
      <trkpt lat="43.97274" lon="6.66348">
        <ele>864</ele>
        <time>2025-09-26T14:31:25Z</time>
      </trkpt>
      <trkpt lat="43.97266" lon="6.66345">
        <ele>860</ele>
        <time>2025-09-26T14:31:36Z</time>
      </trkpt>
      <trkpt lat="43.97258" lon="6.66349">
        <ele>859</ele>
        <time>2025-09-26T14:31:49Z</time>
      </trkpt>
      <trkpt lat="43.9724" lon="6.66377">
        <ele>856</ele>
        <time>2025-09-26T14:32:25Z</time>
      </trkpt>
      <trkpt lat="43.97214" lon="6.66387">
        <ele>843</ele>
        <time>2025-09-26T14:33:02Z</time>
      </trkpt>
      <trkpt lat="43.97212" lon="6.66422">
        <ele>847</ele>
        <time>2025-09-26T14:33:42Z</time>
      </trkpt>
      <trkpt lat="43.97206" lon="6.66431">
        <ele>844</ele>
        <time>2025-09-26T14:33:53Z</time>
      </trkpt>
      <trkpt lat="43.97193" lon="6.66415">
        <ele>834</ele>
        <time>2025-09-26T14:34:18Z</time>
      </trkpt>
      <trkpt lat="43.97191" lon="6.66425">
        <ele>834</ele>
        <time>2025-09-26T14:34:28Z</time>
      </trkpt>
      <trkpt lat="43.9718" lon="6.66412">
        <ele>826</ele>
        <time>2025-09-26T14:34:50Z</time>
      </trkpt>
      <trkpt lat="43.9718" lon="6.66435">
        <ele>829</ele>
        <time>2025-09-26T14:35:12Z</time>
      </trkpt>
      <trkpt lat="43.9717" lon="6.66437">
        <ele>823</ele>
        <time>2025-09-26T14:35:26Z</time>
      </trkpt>
      <trkpt lat="43.9715" lon="6.66484">
        <ele>816</ele>
        <time>2025-09-26T14:36:19Z</time>
      </trkpt>
      <trkpt lat="43.97137" lon="6.66513">
        <ele>810</ele>
        <time>2025-09-26T14:36:54Z</time>
      </trkpt>
      <trkpt lat="43.97132" lon="6.66527">
        <ele>808</ele>
        <time>2025-09-26T14:37:09Z</time>
      </trkpt>
      <trkpt lat="43.97129" lon="6.66546">
        <ele>808</ele>
        <time>2025-09-26T14:37:27Z</time>
      </trkpt>
      <trkpt lat="43.97125" lon="6.66563">
        <ele>806</ele>
        <time>2025-09-26T14:37:46Z</time>
      </trkpt>
      <trkpt lat="43.97116" lon="6.66551">
        <ele>798</ele>
        <time>2025-09-26T14:38:03Z</time>
      </trkpt>
      <trkpt lat="43.97091" lon="6.6657">
        <ele>779</ele>
        <time>2025-09-26T14:38:46Z</time>
      </trkpt>
      <trkpt lat="43.97085" lon="6.66585">
        <ele>774</ele>
        <time>2025-09-26T14:39:03Z</time>
      </trkpt>
      <trkpt lat="43.97079" lon="6.66617">
        <ele>772</ele>
        <time>2025-09-26T14:39:34Z</time>
      </trkpt>
      <trkpt lat="43.97067" lon="6.66629">
        <ele>768</ele>
        <time>2025-09-26T14:39:54Z</time>
      </trkpt>
      <trkpt lat="43.97064" lon="6.66639">
        <ele>767</ele>
        <time>2025-09-26T14:40:05Z</time>
      </trkpt>
      <trkpt lat="43.9705" lon="6.66654">
        <ele>761</ele>
        <time>2025-09-26T14:40:28Z</time>
      </trkpt>
      <trkpt lat="43.9704" lon="6.66685">
        <ele>755</ele>
        <time>2025-09-26T14:41:02Z</time>
      </trkpt>
      <trkpt lat="43.97041" lon="6.66695">
        <ele>755</ele>
        <time>2025-09-26T14:41:12Z</time>
      </trkpt>
      <trkpt lat="43.97035" lon="6.66708">
        <ele>751</ele>
        <time>2025-09-26T14:41:27Z</time>
      </trkpt>
      <trkpt lat="43.97022" lon="6.66723">
        <ele>744</ele>
        <time>2025-09-26T14:41:49Z</time>
      </trkpt>
      <trkpt lat="43.97012" lon="6.66729">
        <ele>739</ele>
        <time>2025-09-26T14:42:04Z</time>
      </trkpt>
      <trkpt lat="43.97006" lon="6.66744">
        <ele>734</ele>
        <time>2025-09-26T14:42:21Z</time>
      </trkpt>
      <trkpt lat="43.9702" lon="6.66879">
        <ele>722</ele>
        <time>2025-09-26T14:44:37Z</time>
      </trkpt>
      <trkpt lat="43.9702" lon="6.66879">
        <ele>722</ele>
        <time>2025-09-26T14:45:02Z</time>
      </trkpt>
      <trkpt lat="43.97012" lon="6.66881">
        <ele>720</ele>
        <time>2025-09-26T14:45:13Z</time>
      </trkpt>
      <trkpt lat="43.97003" lon="6.6688">
        <ele>718</ele>
        <time>2025-09-26T14:45:25Z</time>
      </trkpt>
      <trkpt lat="43.96963" lon="6.66835">
        <ele>717</ele>
        <time>2025-09-26T14:46:33Z</time>
      </trkpt>
      <trkpt lat="43.969" lon="6.66828">
        <ele>707</ele>
        <time>2025-09-26T14:47:58Z</time>
      </trkpt>
      <trkpt lat="43.96869" lon="6.66811">
        <ele>706</ele>
        <time>2025-09-26T14:48:42Z</time>
      </trkpt>
      <trkpt lat="43.96847" lon="6.66787">
        <ele>705</ele>
        <time>2025-09-26T14:49:19Z</time>
      </trkpt>
      <trkpt lat="43.96828" lon="6.66785">
        <ele>704</ele>
        <time>2025-09-26T14:49:45Z</time>
      </trkpt>
      <trkpt lat="43.96796" lon="6.66771">
        <ele>704</ele>
        <time>2025-09-26T14:50:30Z</time>
      </trkpt>
      <trkpt lat="43.96737" lon="6.66768">
        <ele>703</ele>
        <time>2025-09-26T14:51:48Z</time>
      </trkpt>
      <trkpt lat="43.96702" lon="6.6678">
        <ele>700</ele>
        <time>2025-09-26T14:52:37Z</time>
      </trkpt>
      <trkpt lat="43.9669" lon="6.66782">
        <ele>700</ele>
        <time>2025-09-26T14:52:53Z</time>
      </trkpt>
      <trkpt lat="43.96678" lon="6.66813">
        <ele>697</ele>
        <time>2025-09-26T14:53:28Z</time>
      </trkpt>
      <trkpt lat="43.96679" lon="6.66827">
        <ele>696</ele>
        <time>2025-09-26T14:53:42Z</time>
      </trkpt>
      <trkpt lat="43.96659" lon="6.66853">
        <ele>694</ele>
        <time>2025-09-26T14:54:19Z</time>
      </trkpt>
      <trkpt lat="43.96646" lon="6.66842">
        <ele>694</ele>
        <time>2025-09-26T14:54:40Z</time>
      </trkpt>
      <trkpt lat="43.9663" lon="6.6683">
        <ele>693</ele>
        <time>2025-09-26T14:55:04Z</time>
      </trkpt>
      <trkpt lat="43.96625" lon="6.66821">
        <ele>693</ele>
        <time>2025-09-26T14:55:15Z</time>
      </trkpt>
      <trkpt lat="43.96559" lon="6.66835">
        <ele>690</ele>
        <time>2025-09-26T14:56:44Z</time>
      </trkpt>
      <trkpt lat="43.96541" lon="6.66859">
        <ele>690</ele>
        <time>2025-09-26T14:57:18Z</time>
      </trkpt>
      <trkpt lat="43.9654" lon="6.66869">
        <ele>690</ele>
        <time>2025-09-26T14:57:27Z</time>
      </trkpt>
      <trkpt lat="43.96544" lon="6.66912">
        <ele>691</ele>
        <time>2025-09-26T14:58:09Z</time>
      </trkpt>
      <trkpt lat="43.96535" lon="6.66948">
        <ele>692</ele>
        <time>2025-09-26T14:58:46Z</time>
      </trkpt>
      <trkpt lat="43.96538" lon="6.66961">
        <ele>692</ele>
        <time>2025-09-26T14:58:59Z</time>
      </trkpt>
      <trkpt lat="43.96531" lon="6.66966">
        <ele>692</ele>
        <time>2025-09-26T14:59:09Z</time>
      </trkpt>
      <trkpt lat="43.96537" lon="6.66987">
        <ele>692</ele>
        <time>2025-09-26T14:59:31Z</time>
      </trkpt>
      <trkpt lat="43.96538" lon="6.67005">
        <ele>693</ele>
        <time>2025-09-26T14:59:48Z</time>
      </trkpt>
      <trkpt lat="43.96515" lon="6.67076">
        <ele>695</ele>
        <time>2025-09-26T15:01:03Z</time>
      </trkpt>
      <trkpt lat="43.96516" lon="6.67126">
        <ele>700</ele>
        <time>2025-09-26T15:01:51Z</time>
      </trkpt>
      <trkpt lat="43.96513" lon="6.67145">
        <ele>702</ele>
        <time>2025-09-26T15:02:10Z</time>
      </trkpt>
      <trkpt lat="43.96502" lon="6.67159">
        <ele>703</ele>
        <time>2025-09-26T15:02:30Z</time>
      </trkpt>
      <trkpt lat="43.96472" lon="6.67177">
        <ele>705</ele>
        <time>2025-09-26T15:03:13Z</time>
      </trkpt>
      <trkpt lat="43.96412" lon="6.67194">
        <ele>705</ele>
        <time>2025-09-26T15:04:35Z</time>
      </trkpt>
      <trkpt lat="43.96371" lon="6.67219">
        <ele>705</ele>
        <time>2025-09-26T15:05:35Z</time>
      </trkpt>
      <trkpt lat="43.96332" lon="6.6725">
        <ele>706</ele>
        <time>2025-09-26T15:06:35Z</time>
        <extensions>
          <visugpx:TrkExtension xmlns:visugpx="https://www.visugpx.com/editgpx/">
            <visugpx:node>1</visugpx:node>
            </visugpx:TrkExtension>
        </extensions>
      </trkpt>
    </trkseg>
  </trk>
</gpx>